<?xml version="1.0" encoding="UTF-8" standalone="no" ?>
<gpx xmlns="http://www.topografix.com/GPX/1/1" xmlns:xsi="http://www.w3.org/2001/XMLSchema-instance" xsi:schemaLocation="http://www.topografix.com/GPX/1/1 http://www.topografix.com/GPX/1/1/gpx.xsd" version="1.1" creator="VisuGPX - https://www.visugpx.com">
  <metadata>
    <name>Corse plage du Loto depuis Saint Florent chemin du litoral</name>
    <desc><![CDATA[Durée réelle 02H30 - Retour par liaison maritime]]></desc>
  </metadata>
  <wpt lat="42.68828" lon="9.27222">
    <ele>35</ele>
    <name><![CDATA[Parking départ normal]]></name>
    <desc><![CDATA[13-SEP-11 9:41:20]]></desc>
  </wpt>
  <wpt lat="42.7204" lon="9.23278">
    <ele>7</ele>
    <name><![CDATA[Plage du loto]]></name>
    <desc><![CDATA[13-SEP-11 15:36:50]]></desc>
  </wpt>
  <trk>
    <name><![CDATA[ACTIVE LOG 006]]></name>
    <trkseg>
      <trkpt lat="42.67677" lon="9.28349">
        <ele>-7.07251</ele>
        <time>2011-09-13T07:15:42Z</time>
      </trkpt>
      <trkpt lat="42.67677" lon="9.28349">
        <ele>-7.07251</ele>
        <time>2011-09-13T07:15:43Z</time>
      </trkpt>
      <trkpt lat="42.67677" lon="9.28349">
        <ele>-4.669312</ele>
        <time>2011-09-13T07:15:44Z</time>
      </trkpt>
      <trkpt lat="42.67678" lon="9.28348">
        <ele>-2.265991</ele>
        <time>2011-09-13T07:15:58Z</time>
      </trkpt>
      <trkpt lat="42.67676" lon="9.28346">
        <ele>-0.343384</ele>
        <time>2011-09-13T07:16:05Z</time>
      </trkpt>
      <trkpt lat="42.67674" lon="9.28343">
        <ele>0.618042</ele>
        <time>2011-09-13T07:16:09Z</time>
      </trkpt>
      <trkpt lat="42.67667" lon="9.28335">
        <ele>1.579346</ele>
        <time>2011-09-13T07:16:17Z</time>
      </trkpt>
      <trkpt lat="42.67663" lon="9.28323">
        <ele>4.463257</ele>
        <time>2011-09-13T07:16:32Z</time>
      </trkpt>
      <trkpt lat="42.67653" lon="9.28302">
        <ele>4.943848</ele>
        <time>2011-09-13T07:16:51Z</time>
      </trkpt>
      <trkpt lat="42.67632" lon="9.2829">
        <ele>6.866455</ele>
        <time>2011-09-13T07:17:11Z</time>
      </trkpt>
      <trkpt lat="42.67631" lon="9.28284">
        <ele>7.827881</ele>
        <time>2011-09-13T07:17:15Z</time>
      </trkpt>
      <trkpt lat="42.67648" lon="9.28257">
        <ele>9.269897</ele>
        <time>2011-09-13T07:17:38Z</time>
      </trkpt>
      <trkpt lat="42.6766" lon="9.28234">
        <ele>11.192505</ele>
        <time>2011-09-13T07:17:56Z</time>
      </trkpt>
      <trkpt lat="42.67672" lon="9.28217">
        <ele>14.076416</ele>
        <time>2011-09-13T07:18:16Z</time>
      </trkpt>
      <trkpt lat="42.67684" lon="9.28204">
        <ele>14.557007</ele>
        <time>2011-09-13T07:18:45Z</time>
      </trkpt>
      <trkpt lat="42.67709" lon="9.28175">
        <ele>16.960449</ele>
        <time>2011-09-13T07:19:11Z</time>
      </trkpt>
      <trkpt lat="42.67722" lon="9.28158">
        <ele>18.402344</ele>
        <time>2011-09-13T07:19:27Z</time>
      </trkpt>
      <trkpt lat="42.67733" lon="9.28147">
        <ele>19.36377</ele>
        <time>2011-09-13T07:19:44Z</time>
      </trkpt>
      <trkpt lat="42.67742" lon="9.28137">
        <ele>21.286377</ele>
        <time>2011-09-13T07:19:57Z</time>
      </trkpt>
      <trkpt lat="42.67758" lon="9.28116">
        <ele>23.689575</ele>
        <time>2011-09-13T07:20:16Z</time>
      </trkpt>
      <trkpt lat="42.67779" lon="9.28092">
        <ele>25.612305</ele>
        <time>2011-09-13T07:20:38Z</time>
      </trkpt>
      <trkpt lat="42.67801" lon="9.2807">
        <ele>24.651001</ele>
        <time>2011-09-13T07:20:59Z</time>
      </trkpt>
      <trkpt lat="42.67823" lon="9.28049">
        <ele>24.651001</ele>
        <time>2011-09-13T07:21:20Z</time>
      </trkpt>
      <trkpt lat="42.67842" lon="9.28029">
        <ele>22.728271</ele>
        <time>2011-09-13T07:21:39Z</time>
      </trkpt>
      <trkpt lat="42.67862" lon="9.28002">
        <ele>21.286377</ele>
        <time>2011-09-13T07:22:00Z</time>
      </trkpt>
      <trkpt lat="42.67888" lon="9.27974">
        <ele>21.766968</ele>
        <time>2011-09-13T07:22:24Z</time>
      </trkpt>
      <trkpt lat="42.67906" lon="9.27965">
        <ele>21.766968</ele>
        <time>2011-09-13T07:22:37Z</time>
      </trkpt>
      <trkpt lat="42.67917" lon="9.27961">
        <ele>21.286377</ele>
        <time>2011-09-13T07:22:45Z</time>
      </trkpt>
      <trkpt lat="42.67945" lon="9.27942">
        <ele>21.766968</ele>
        <time>2011-09-13T07:23:07Z</time>
      </trkpt>
      <trkpt lat="42.67963" lon="9.27917">
        <ele>21.286377</ele>
        <time>2011-09-13T07:23:26Z</time>
      </trkpt>
      <trkpt lat="42.67976" lon="9.27879">
        <ele>20.805664</ele>
        <time>2011-09-13T07:23:49Z</time>
      </trkpt>
      <trkpt lat="42.67997" lon="9.2785">
        <ele>20.805664</ele>
        <time>2011-09-13T07:24:11Z</time>
      </trkpt>
      <trkpt lat="42.68022" lon="9.27823">
        <ele>21.766968</ele>
        <time>2011-09-13T07:24:34Z</time>
      </trkpt>
      <trkpt lat="42.68045" lon="9.27798">
        <ele>21.286377</ele>
        <time>2011-09-13T07:24:57Z</time>
      </trkpt>
      <trkpt lat="42.68046" lon="9.27771">
        <ele>22.247559</ele>
        <time>2011-09-13T07:25:15Z</time>
      </trkpt>
      <trkpt lat="42.6803" lon="9.27747">
        <ele>23.208984</ele>
        <time>2011-09-13T07:25:34Z</time>
      </trkpt>
      <trkpt lat="42.68016" lon="9.27716">
        <ele>25.612305</ele>
        <time>2011-09-13T07:25:55Z</time>
      </trkpt>
      <trkpt lat="42.68014" lon="9.27691">
        <ele>27.534912</ele>
        <time>2011-09-13T07:26:08Z</time>
      </trkpt>
      <trkpt lat="42.68023" lon="9.27657">
        <ele>29.93811</ele>
        <time>2011-09-13T07:26:29Z</time>
      </trkpt>
      <trkpt lat="42.68028" lon="9.27647">
        <ele>30.899536</ele>
        <time>2011-09-13T07:26:36Z</time>
      </trkpt>
      <trkpt lat="42.6803" lon="9.27645">
        <ele>30.899536</ele>
        <time>2011-09-13T07:26:38Z</time>
      </trkpt>
      <trkpt lat="42.68039" lon="9.27606">
        <ele>32.341553</ele>
        <time>2011-09-13T07:27:03Z</time>
      </trkpt>
      <trkpt lat="42.68041" lon="9.27572">
        <ele>32.822266</ele>
        <time>2011-09-13T07:27:23Z</time>
      </trkpt>
      <trkpt lat="42.68062" lon="9.27565">
        <ele>33.302856</ele>
        <time>2011-09-13T07:27:40Z</time>
      </trkpt>
      <trkpt lat="42.68094" lon="9.27568">
        <ele>34.26416</ele>
        <time>2011-09-13T07:28:02Z</time>
      </trkpt>
      <trkpt lat="42.68124" lon="9.27567">
        <ele>34.744873</ele>
        <time>2011-09-13T07:28:23Z</time>
      </trkpt>
      <trkpt lat="42.68149" lon="9.27555">
        <ele>35.706055</ele>
        <time>2011-09-13T07:28:44Z</time>
      </trkpt>
      <trkpt lat="42.68172" lon="9.27525">
        <ele>37.148071</ele>
        <time>2011-09-13T07:29:08Z</time>
      </trkpt>
      <trkpt lat="42.68177" lon="9.27518">
        <ele>37.148071</ele>
        <time>2011-09-13T07:29:14Z</time>
      </trkpt>
      <trkpt lat="42.68189" lon="9.27486">
        <ele>37.148071</ele>
        <time>2011-09-13T07:29:35Z</time>
      </trkpt>
      <trkpt lat="42.68203" lon="9.27461">
        <ele>38.590088</ele>
        <time>2011-09-13T07:29:54Z</time>
      </trkpt>
      <trkpt lat="42.68225" lon="9.27459">
        <ele>40.512817</ele>
        <time>2011-09-13T07:30:11Z</time>
      </trkpt>
      <trkpt lat="42.6824" lon="9.2743">
        <ele>41.954712</ele>
        <time>2011-09-13T07:30:32Z</time>
      </trkpt>
      <trkpt lat="42.68256" lon="9.27397">
        <ele>43.877319</ele>
        <time>2011-09-13T07:30:54Z</time>
      </trkpt>
      <trkpt lat="42.68266" lon="9.27391">
        <ele>43.877319</ele>
        <time>2011-09-13T07:31:02Z</time>
      </trkpt>
      <trkpt lat="42.68287" lon="9.27409">
        <ele>45.799927</ele>
        <time>2011-09-13T07:31:20Z</time>
      </trkpt>
      <trkpt lat="42.68312" lon="9.27423">
        <ele>46.76123</ele>
        <time>2011-09-13T07:31:42Z</time>
      </trkpt>
      <trkpt lat="42.68331" lon="9.27416">
        <ele>47.722534</ele>
        <time>2011-09-13T07:31:59Z</time>
      </trkpt>
      <trkpt lat="42.68353" lon="9.2742">
        <ele>49.645264</ele>
        <time>2011-09-13T07:32:18Z</time>
      </trkpt>
      <trkpt lat="42.68377" lon="9.27433">
        <ele>50.606567</ele>
        <time>2011-09-13T07:32:36Z</time>
      </trkpt>
      <trkpt lat="42.68382" lon="9.27436">
        <ele>50.606567</ele>
        <time>2011-09-13T07:32:44Z</time>
      </trkpt>
      <trkpt lat="42.68389" lon="9.27433">
        <ele>51.087158</ele>
        <time>2011-09-13T07:32:50Z</time>
      </trkpt>
      <trkpt lat="42.68417" lon="9.27419">
        <ele>50.125977</ele>
        <time>2011-09-13T07:33:09Z</time>
      </trkpt>
      <trkpt lat="42.6843" lon="9.27398">
        <ele>48.68396</ele>
        <time>2011-09-13T07:33:24Z</time>
      </trkpt>
      <trkpt lat="42.68443" lon="9.27371">
        <ele>46.28064</ele>
        <time>2011-09-13T07:33:43Z</time>
      </trkpt>
      <trkpt lat="42.68459" lon="9.2735">
        <ele>44.358032</ele>
        <time>2011-09-13T07:34:00Z</time>
      </trkpt>
      <trkpt lat="42.68478" lon="9.2735">
        <ele>41.954712</ele>
        <time>2011-09-13T07:34:14Z</time>
      </trkpt>
      <trkpt lat="42.68501" lon="9.27353">
        <ele>39.070679</ele>
        <time>2011-09-13T07:34:32Z</time>
      </trkpt>
      <trkpt lat="42.68523" lon="9.27346">
        <ele>36.186768</ele>
        <time>2011-09-13T07:34:50Z</time>
      </trkpt>
      <trkpt lat="42.68547" lon="9.27341">
        <ele>33.302856</ele>
        <time>2011-09-13T07:35:09Z</time>
      </trkpt>
      <trkpt lat="42.68568" lon="9.2734">
        <ele>30.418823</ele>
        <time>2011-09-13T07:35:25Z</time>
      </trkpt>
      <trkpt lat="42.68589" lon="9.2733">
        <ele>28.015503</ele>
        <time>2011-09-13T07:35:45Z</time>
      </trkpt>
      <trkpt lat="42.68586" lon="9.2731">
        <ele>27.054321</ele>
        <time>2011-09-13T07:35:58Z</time>
      </trkpt>
      <trkpt lat="42.68561" lon="9.27307">
        <ele>25.131714</ele>
        <time>2011-09-13T07:36:17Z</time>
      </trkpt>
      <trkpt lat="42.68542" lon="9.27289">
        <ele>23.208984</ele>
        <time>2011-09-13T07:36:35Z</time>
      </trkpt>
      <trkpt lat="42.68538" lon="9.27257">
        <ele>21.286377</ele>
        <time>2011-09-13T07:36:53Z</time>
      </trkpt>
      <trkpt lat="42.68551" lon="9.2723">
        <ele>19.36377</ele>
        <time>2011-09-13T07:37:09Z</time>
      </trkpt>
      <trkpt lat="42.68575" lon="9.27211">
        <ele>20.805664</ele>
        <time>2011-09-13T07:37:29Z</time>
      </trkpt>
      <trkpt lat="42.68596" lon="9.27191">
        <ele>23.208984</ele>
        <time>2011-09-13T07:37:50Z</time>
      </trkpt>
      <trkpt lat="42.68612" lon="9.27172">
        <ele>25.131714</ele>
        <time>2011-09-13T07:38:06Z</time>
      </trkpt>
      <trkpt lat="42.68623" lon="9.27168">
        <ele>26.092896</ele>
        <time>2011-09-13T07:38:15Z</time>
      </trkpt>
      <trkpt lat="42.68644" lon="9.27182">
        <ele>28.976929</ele>
        <time>2011-09-13T07:38:33Z</time>
      </trkpt>
      <trkpt lat="42.68668" lon="9.27176">
        <ele>28.015503</ele>
        <time>2011-09-13T07:38:53Z</time>
      </trkpt>
      <trkpt lat="42.68678" lon="9.27179">
        <ele>28.496216</ele>
        <time>2011-09-13T07:39:00Z</time>
      </trkpt>
      <trkpt lat="42.68689" lon="9.27206">
        <ele>29.45752</ele>
        <time>2011-09-13T07:39:17Z</time>
      </trkpt>
      <trkpt lat="42.68717" lon="9.27209">
        <ele>30.899536</ele>
        <time>2011-09-13T07:39:40Z</time>
      </trkpt>
      <trkpt lat="42.68748" lon="9.27209">
        <ele>31.860718</ele>
        <time>2011-09-13T07:40:03Z</time>
      </trkpt>
      <trkpt lat="42.68772" lon="9.2721">
        <ele>34.744873</ele>
        <time>2011-09-13T07:40:22Z</time>
      </trkpt>
      <trkpt lat="42.68794" lon="9.27204">
        <ele>34.744873</ele>
        <time>2011-09-13T07:40:41Z</time>
      </trkpt>
      <trkpt lat="42.68808" lon="9.27204">
        <ele>36.66748</ele>
        <time>2011-09-13T07:40:57Z</time>
      </trkpt>
      <trkpt lat="42.68814" lon="9.27205">
        <ele>36.66748</ele>
        <time>2011-09-13T07:41:02Z</time>
      </trkpt>
      <trkpt lat="42.68827" lon="9.27215">
        <ele>34.26416</ele>
        <time>2011-09-13T07:41:16Z</time>
      </trkpt>
      <trkpt lat="42.68827" lon="9.27217">
        <ele>33.783447</ele>
        <time>2011-09-13T07:41:17Z</time>
      </trkpt>
      <trkpt lat="42.68828" lon="9.27243">
        <ele>32.341553</ele>
        <time>2011-09-13T07:41:35Z</time>
      </trkpt>
      <trkpt lat="42.68827" lon="9.27253">
        <ele>31.860718</ele>
        <time>2011-09-13T07:41:42Z</time>
      </trkpt>
      <trkpt lat="42.68822" lon="9.27284">
        <ele>30.899536</ele>
        <time>2011-09-13T07:42:00Z</time>
      </trkpt>
      <trkpt lat="42.68821" lon="9.27287">
        <ele>30.899536</ele>
        <time>2011-09-13T07:42:12Z</time>
      </trkpt>
      <trkpt lat="42.68821" lon="9.27294">
        <ele>29.93811</ele>
        <time>2011-09-13T07:42:17Z</time>
      </trkpt>
      <trkpt lat="42.68823" lon="9.27302">
        <ele>29.45752</ele>
        <time>2011-09-13T07:42:23Z</time>
      </trkpt>
      <trkpt lat="42.68823" lon="9.2733">
        <ele>26.092896</ele>
        <time>2011-09-13T07:42:40Z</time>
      </trkpt>
      <trkpt lat="42.68824" lon="9.27355">
        <ele>25.612305</ele>
        <time>2011-09-13T07:42:55Z</time>
      </trkpt>
      <trkpt lat="42.6883" lon="9.27378">
        <ele>23.689575</ele>
        <time>2011-09-13T07:43:09Z</time>
      </trkpt>
      <trkpt lat="42.68833" lon="9.27385">
        <ele>23.689575</ele>
        <time>2011-09-13T07:43:14Z</time>
      </trkpt>
      <trkpt lat="42.68846" lon="9.2741">
        <ele>21.766968</ele>
        <time>2011-09-13T07:43:34Z</time>
      </trkpt>
      <trkpt lat="42.68849" lon="9.27444">
        <ele>18.883057</ele>
        <time>2011-09-13T07:43:55Z</time>
      </trkpt>
      <trkpt lat="42.68855" lon="9.27464">
        <ele>17.921753</ele>
        <time>2011-09-13T07:44:10Z</time>
      </trkpt>
      <trkpt lat="42.68862" lon="9.27466">
        <ele>15.999023</ele>
        <time>2011-09-13T07:44:17Z</time>
      </trkpt>
      <trkpt lat="42.68869" lon="9.27469">
        <ele>14.557007</ele>
        <time>2011-09-13T07:44:25Z</time>
      </trkpt>
      <trkpt lat="42.68879" lon="9.27496">
        <ele>14.557007</ele>
        <time>2011-09-13T07:44:43Z</time>
      </trkpt>
      <trkpt lat="42.68883" lon="9.27524">
        <ele>13.115112</ele>
        <time>2011-09-13T07:45:01Z</time>
      </trkpt>
      <trkpt lat="42.68893" lon="9.2753">
        <ele>11.673218</ele>
        <time>2011-09-13T07:45:14Z</time>
      </trkpt>
      <trkpt lat="42.68897" lon="9.27537">
        <ele>9.75061</ele>
        <time>2011-09-13T07:45:22Z</time>
      </trkpt>
      <trkpt lat="42.68903" lon="9.27539">
        <ele>9.269897</ele>
        <time>2011-09-13T07:45:27Z</time>
      </trkpt>
      <trkpt lat="42.68913" lon="9.27537">
        <ele>9.269897</ele>
        <time>2011-09-13T07:45:34Z</time>
      </trkpt>
      <trkpt lat="42.68919" lon="9.27538">
        <ele>8.789185</ele>
        <time>2011-09-13T07:45:39Z</time>
      </trkpt>
      <trkpt lat="42.68931" lon="9.27542">
        <ele>10.231201</ele>
        <time>2011-09-13T07:45:53Z</time>
      </trkpt>
      <trkpt lat="42.68943" lon="9.27552">
        <ele>12.634399</ele>
        <time>2011-09-13T07:46:07Z</time>
      </trkpt>
      <trkpt lat="42.68961" lon="9.2757">
        <ele>13.595825</ele>
        <time>2011-09-13T07:46:25Z</time>
      </trkpt>
      <trkpt lat="42.68981" lon="9.27585">
        <ele>13.115112</ele>
        <time>2011-09-13T07:46:46Z</time>
      </trkpt>
      <trkpt lat="42.68985" lon="9.27586">
        <ele>12.634399</ele>
        <time>2011-09-13T07:46:58Z</time>
      </trkpt>
      <trkpt lat="42.68994" lon="9.27591">
        <ele>12.153809</ele>
        <time>2011-09-13T07:47:11Z</time>
      </trkpt>
      <trkpt lat="42.69013" lon="9.27598">
        <ele>11.192505</ele>
        <time>2011-09-13T07:47:28Z</time>
      </trkpt>
      <trkpt lat="42.69016" lon="9.27596">
        <ele>11.192505</ele>
        <time>2011-09-13T07:47:31Z</time>
      </trkpt>
      <trkpt lat="42.69022" lon="9.27598">
        <ele>11.673218</ele>
        <time>2011-09-13T07:47:36Z</time>
      </trkpt>
      <trkpt lat="42.69024" lon="9.27598">
        <ele>11.673218</ele>
        <time>2011-09-13T07:47:38Z</time>
      </trkpt>
      <trkpt lat="42.69032" lon="9.276">
        <ele>12.634399</ele>
        <time>2011-09-13T07:47:45Z</time>
      </trkpt>
      <trkpt lat="42.6904" lon="9.27625">
        <ele>11.673218</ele>
        <time>2011-09-13T07:48:02Z</time>
      </trkpt>
      <trkpt lat="42.69047" lon="9.27652">
        <ele>12.153809</ele>
        <time>2011-09-13T07:48:19Z</time>
      </trkpt>
      <trkpt lat="42.69068" lon="9.27672">
        <ele>13.115112</ele>
        <time>2011-09-13T07:48:39Z</time>
      </trkpt>
      <trkpt lat="42.69074" lon="9.27678">
        <ele>13.115112</ele>
        <time>2011-09-13T07:48:44Z</time>
      </trkpt>
      <trkpt lat="42.69079" lon="9.27685">
        <ele>12.634399</ele>
        <time>2011-09-13T07:48:53Z</time>
      </trkpt>
      <trkpt lat="42.691" lon="9.27696">
        <ele>12.634399</ele>
        <time>2011-09-13T07:49:09Z</time>
      </trkpt>
      <trkpt lat="42.69109" lon="9.27703">
        <ele>12.153809</ele>
        <time>2011-09-13T07:49:25Z</time>
      </trkpt>
      <trkpt lat="42.69125" lon="9.27715">
        <ele>12.153809</ele>
        <time>2011-09-13T07:49:40Z</time>
      </trkpt>
      <trkpt lat="42.69141" lon="9.27721">
        <ele>11.192505</ele>
        <time>2011-09-13T07:49:53Z</time>
      </trkpt>
      <trkpt lat="42.69164" lon="9.2771">
        <ele>12.153809</ele>
        <time>2011-09-13T07:50:11Z</time>
      </trkpt>
      <trkpt lat="42.6918" lon="9.2769">
        <ele>13.115112</ele>
        <time>2011-09-13T07:50:29Z</time>
      </trkpt>
      <trkpt lat="42.69182" lon="9.27689">
        <ele>13.115112</ele>
        <time>2011-09-13T07:50:31Z</time>
      </trkpt>
      <trkpt lat="42.69193" lon="9.27682">
        <ele>12.634399</ele>
        <time>2011-09-13T07:50:41Z</time>
      </trkpt>
      <trkpt lat="42.69213" lon="9.27673">
        <ele>11.673218</ele>
        <time>2011-09-13T07:50:57Z</time>
      </trkpt>
      <trkpt lat="42.69221" lon="9.27661">
        <ele>12.634399</ele>
        <time>2011-09-13T07:51:10Z</time>
      </trkpt>
      <trkpt lat="42.69236" lon="9.27633">
        <ele>12.153809</ele>
        <time>2011-09-13T07:51:27Z</time>
      </trkpt>
      <trkpt lat="42.69249" lon="9.27614">
        <ele>11.673218</ele>
        <time>2011-09-13T07:51:41Z</time>
      </trkpt>
      <trkpt lat="42.69257" lon="9.27592">
        <ele>12.153809</ele>
        <time>2011-09-13T07:51:56Z</time>
      </trkpt>
      <trkpt lat="42.69266" lon="9.2757">
        <ele>12.153809</ele>
        <time>2011-09-13T07:52:11Z</time>
      </trkpt>
      <trkpt lat="42.69279" lon="9.27553">
        <ele>11.673218</ele>
        <time>2011-09-13T07:52:25Z</time>
      </trkpt>
      <trkpt lat="42.6928" lon="9.27547">
        <ele>13.115112</ele>
        <time>2011-09-13T07:52:28Z</time>
      </trkpt>
      <trkpt lat="42.69289" lon="9.2754">
        <ele>13.115112</ele>
        <time>2011-09-13T07:52:37Z</time>
      </trkpt>
      <trkpt lat="42.69294" lon="9.27535">
        <ele>13.595825</ele>
        <time>2011-09-13T07:52:42Z</time>
      </trkpt>
      <trkpt lat="42.69301" lon="9.27533">
        <ele>12.634399</ele>
        <time>2011-09-13T07:52:48Z</time>
      </trkpt>
      <trkpt lat="42.6931" lon="9.27527">
        <ele>11.192505</ele>
        <time>2011-09-13T07:52:55Z</time>
      </trkpt>
      <trkpt lat="42.6932" lon="9.27526">
        <ele>11.192505</ele>
        <time>2011-09-13T07:53:02Z</time>
      </trkpt>
      <trkpt lat="42.69326" lon="9.27512">
        <ele>12.153809</ele>
        <time>2011-09-13T07:53:11Z</time>
      </trkpt>
      <trkpt lat="42.69343" lon="9.27509">
        <ele>12.634399</ele>
        <time>2011-09-13T07:53:26Z</time>
      </trkpt>
      <trkpt lat="42.69352" lon="9.27507">
        <ele>13.115112</ele>
        <time>2011-09-13T07:53:36Z</time>
      </trkpt>
      <trkpt lat="42.6936" lon="9.27508">
        <ele>12.634399</ele>
        <time>2011-09-13T07:53:43Z</time>
      </trkpt>
      <trkpt lat="42.69365" lon="9.27507">
        <ele>13.115112</ele>
        <time>2011-09-13T07:53:47Z</time>
      </trkpt>
      <trkpt lat="42.69374" lon="9.27483">
        <ele>12.153809</ele>
        <time>2011-09-13T07:54:03Z</time>
      </trkpt>
      <trkpt lat="42.69378" lon="9.27476">
        <ele>11.673218</ele>
        <time>2011-09-13T07:54:09Z</time>
      </trkpt>
      <trkpt lat="42.69382" lon="9.2745">
        <ele>10.711792</ele>
        <time>2011-09-13T07:54:25Z</time>
      </trkpt>
      <trkpt lat="42.69383" lon="9.27447">
        <ele>10.711792</ele>
        <time>2011-09-13T07:54:27Z</time>
      </trkpt>
      <trkpt lat="42.69382" lon="9.27435">
        <ele>10.231201</ele>
        <time>2011-09-13T07:54:36Z</time>
      </trkpt>
      <trkpt lat="42.6938" lon="9.27434">
        <ele>9.75061</ele>
        <time>2011-09-13T07:54:38Z</time>
      </trkpt>
      <trkpt lat="42.69377" lon="9.27428">
        <ele>10.711792</ele>
        <time>2011-09-13T07:54:42Z</time>
      </trkpt>
      <trkpt lat="42.69376" lon="9.27423">
        <ele>10.231201</ele>
        <time>2011-09-13T07:54:45Z</time>
      </trkpt>
      <trkpt lat="42.69373" lon="9.27397">
        <ele>12.153809</ele>
        <time>2011-09-13T07:55:01Z</time>
      </trkpt>
      <trkpt lat="42.69377" lon="9.27368">
        <ele>12.634399</ele>
        <time>2011-09-13T07:55:18Z</time>
      </trkpt>
      <trkpt lat="42.69383" lon="9.27339">
        <ele>12.634399</ele>
        <time>2011-09-13T07:55:35Z</time>
      </trkpt>
      <trkpt lat="42.69387" lon="9.27311">
        <ele>12.634399</ele>
        <time>2011-09-13T07:55:51Z</time>
      </trkpt>
      <trkpt lat="42.69394" lon="9.2728">
        <ele>12.634399</ele>
        <time>2011-09-13T07:56:09Z</time>
      </trkpt>
      <trkpt lat="42.69395" lon="9.27262">
        <ele>13.115112</ele>
        <time>2011-09-13T07:56:20Z</time>
      </trkpt>
      <trkpt lat="42.69395" lon="9.27236">
        <ele>14.076416</ele>
        <time>2011-09-13T07:56:37Z</time>
      </trkpt>
      <trkpt lat="42.69397" lon="9.2722">
        <ele>14.076416</ele>
        <time>2011-09-13T07:56:53Z</time>
      </trkpt>
      <trkpt lat="42.69405" lon="9.27183">
        <ele>13.115112</ele>
        <time>2011-09-13T07:57:12Z</time>
      </trkpt>
      <trkpt lat="42.69409" lon="9.27152">
        <ele>14.557007</ele>
        <time>2011-09-13T07:57:28Z</time>
      </trkpt>
      <trkpt lat="42.69421" lon="9.27126">
        <ele>16.960449</ele>
        <time>2011-09-13T07:57:44Z</time>
      </trkpt>
      <trkpt lat="42.69437" lon="9.27118">
        <ele>16.479736</ele>
        <time>2011-09-13T07:57:58Z</time>
      </trkpt>
      <trkpt lat="42.6944" lon="9.27114">
        <ele>16.960449</ele>
        <time>2011-09-13T07:58:02Z</time>
      </trkpt>
      <trkpt lat="42.69448" lon="9.27109">
        <ele>16.479736</ele>
        <time>2011-09-13T07:58:09Z</time>
      </trkpt>
      <trkpt lat="42.69449" lon="9.27102">
        <ele>16.479736</ele>
        <time>2011-09-13T07:58:13Z</time>
      </trkpt>
      <trkpt lat="42.69455" lon="9.27078">
        <ele>15.518433</ele>
        <time>2011-09-13T07:58:28Z</time>
      </trkpt>
      <trkpt lat="42.69464" lon="9.27053">
        <ele>14.076416</ele>
        <time>2011-09-13T07:58:43Z</time>
      </trkpt>
      <trkpt lat="42.69475" lon="9.27042">
        <ele>14.076416</ele>
        <time>2011-09-13T07:58:53Z</time>
      </trkpt>
      <trkpt lat="42.69479" lon="9.27031">
        <ele>13.595825</ele>
        <time>2011-09-13T07:59:00Z</time>
      </trkpt>
      <trkpt lat="42.69486" lon="9.27012">
        <ele>13.595825</ele>
        <time>2011-09-13T07:59:12Z</time>
      </trkpt>
      <trkpt lat="42.69492" lon="9.27007">
        <ele>13.115112</ele>
        <time>2011-09-13T07:59:18Z</time>
      </trkpt>
      <trkpt lat="42.69509" lon="9.26992">
        <ele>11.673218</ele>
        <time>2011-09-13T07:59:34Z</time>
      </trkpt>
      <trkpt lat="42.6951" lon="9.26991">
        <ele>11.673218</ele>
        <time>2011-09-13T07:59:35Z</time>
      </trkpt>
      <trkpt lat="42.69515" lon="9.26985">
        <ele>12.153809</ele>
        <time>2011-09-13T07:59:40Z</time>
      </trkpt>
      <trkpt lat="42.69523" lon="9.26974">
        <ele>10.711792</ele>
        <time>2011-09-13T07:59:48Z</time>
      </trkpt>
      <trkpt lat="42.69539" lon="9.26952">
        <ele>10.711792</ele>
        <time>2011-09-13T08:00:08Z</time>
      </trkpt>
      <trkpt lat="42.69544" lon="9.26946">
        <ele>11.192505</ele>
        <time>2011-09-13T08:00:13Z</time>
      </trkpt>
      <trkpt lat="42.69567" lon="9.26943">
        <ele>11.673218</ele>
        <time>2011-09-13T08:00:31Z</time>
      </trkpt>
      <trkpt lat="42.69574" lon="9.26937">
        <ele>11.673218</ele>
        <time>2011-09-13T08:00:45Z</time>
      </trkpt>
      <trkpt lat="42.69596" lon="9.26922">
        <ele>12.634399</ele>
        <time>2011-09-13T08:01:02Z</time>
      </trkpt>
      <trkpt lat="42.69598" lon="9.26921">
        <ele>12.153809</ele>
        <time>2011-09-13T08:01:04Z</time>
      </trkpt>
      <trkpt lat="42.69603" lon="9.26917">
        <ele>13.115112</ele>
        <time>2011-09-13T08:01:08Z</time>
      </trkpt>
      <trkpt lat="42.69609" lon="9.26915">
        <ele>12.153809</ele>
        <time>2011-09-13T08:01:13Z</time>
      </trkpt>
      <trkpt lat="42.69628" lon="9.26901">
        <ele>11.673218</ele>
        <time>2011-09-13T08:01:29Z</time>
      </trkpt>
      <trkpt lat="42.69633" lon="9.26896">
        <ele>10.711792</ele>
        <time>2011-09-13T08:01:35Z</time>
      </trkpt>
      <trkpt lat="42.69635" lon="9.26891">
        <ele>10.231201</ele>
        <time>2011-09-13T08:01:39Z</time>
      </trkpt>
      <trkpt lat="42.69637" lon="9.26874">
        <ele>8.789185</ele>
        <time>2011-09-13T08:01:50Z</time>
      </trkpt>
      <trkpt lat="42.69661" lon="9.26863">
        <ele>8.308594</ele>
        <time>2011-09-13T08:02:08Z</time>
      </trkpt>
      <trkpt lat="42.69665" lon="9.26862">
        <ele>9.75061</ele>
        <time>2011-09-13T08:02:12Z</time>
      </trkpt>
      <trkpt lat="42.6967" lon="9.26862">
        <ele>10.231201</ele>
        <time>2011-09-13T08:02:17Z</time>
      </trkpt>
      <trkpt lat="42.69679" lon="9.26862">
        <ele>12.153809</ele>
        <time>2011-09-13T08:02:29Z</time>
      </trkpt>
      <trkpt lat="42.69684" lon="9.26863">
        <ele>13.595825</ele>
        <time>2011-09-13T08:02:35Z</time>
      </trkpt>
      <trkpt lat="42.69685" lon="9.26866">
        <ele>14.557007</ele>
        <time>2011-09-13T08:02:37Z</time>
      </trkpt>
      <trkpt lat="42.69689" lon="9.26881">
        <ele>16.479736</ele>
        <time>2011-09-13T08:02:52Z</time>
      </trkpt>
      <trkpt lat="42.69689" lon="9.26887">
        <ele>15.03772</ele>
        <time>2011-09-13T08:02:56Z</time>
      </trkpt>
      <trkpt lat="42.69688" lon="9.26889">
        <ele>15.03772</ele>
        <time>2011-09-13T08:02:58Z</time>
      </trkpt>
      <trkpt lat="42.69693" lon="9.26906">
        <ele>14.076416</ele>
        <time>2011-09-13T08:03:08Z</time>
      </trkpt>
      <trkpt lat="42.69706" lon="9.26921">
        <ele>15.03772</ele>
        <time>2011-09-13T08:03:23Z</time>
      </trkpt>
      <trkpt lat="42.69706" lon="9.26922">
        <ele>15.03772</ele>
        <time>2011-09-13T08:03:24Z</time>
      </trkpt>
      <trkpt lat="42.6971" lon="9.2693">
        <ele>15.03772</ele>
        <time>2011-09-13T08:03:30Z</time>
      </trkpt>
      <trkpt lat="42.69711" lon="9.26932">
        <ele>14.557007</ele>
        <time>2011-09-13T08:03:32Z</time>
      </trkpt>
      <trkpt lat="42.69726" lon="9.26955">
        <ele>13.595825</ele>
        <time>2011-09-13T08:03:49Z</time>
      </trkpt>
      <trkpt lat="42.69739" lon="9.26968">
        <ele>13.115112</ele>
        <time>2011-09-13T08:04:05Z</time>
      </trkpt>
      <trkpt lat="42.6974" lon="9.2697">
        <ele>12.153809</ele>
        <time>2011-09-13T08:04:07Z</time>
      </trkpt>
      <trkpt lat="42.69743" lon="9.2697">
        <ele>12.153809</ele>
        <time>2011-09-13T08:04:11Z</time>
      </trkpt>
      <trkpt lat="42.69766" lon="9.26977">
        <ele>12.153809</ele>
        <time>2011-09-13T08:04:28Z</time>
      </trkpt>
      <trkpt lat="42.69767" lon="9.26977">
        <ele>12.153809</ele>
        <time>2011-09-13T08:04:29Z</time>
      </trkpt>
      <trkpt lat="42.69777" lon="9.26981">
        <ele>12.153809</ele>
        <time>2011-09-13T08:04:37Z</time>
      </trkpt>
      <trkpt lat="42.69782" lon="9.26982">
        <ele>12.634399</ele>
        <time>2011-09-13T08:04:41Z</time>
      </trkpt>
      <trkpt lat="42.69793" lon="9.26982">
        <ele>12.634399</ele>
        <time>2011-09-13T08:04:50Z</time>
      </trkpt>
      <trkpt lat="42.69805" lon="9.26977">
        <ele>13.595825</ele>
        <time>2011-09-13T08:05:02Z</time>
      </trkpt>
      <trkpt lat="42.69816" lon="9.26972">
        <ele>13.115112</ele>
        <time>2011-09-13T08:05:11Z</time>
      </trkpt>
      <trkpt lat="42.69842" lon="9.2696">
        <ele>13.115112</ele>
        <time>2011-09-13T08:05:31Z</time>
      </trkpt>
      <trkpt lat="42.69855" lon="9.26947">
        <ele>13.595825</ele>
        <time>2011-09-13T08:05:44Z</time>
      </trkpt>
      <trkpt lat="42.6988" lon="9.26935">
        <ele>13.115112</ele>
        <time>2011-09-13T08:06:04Z</time>
      </trkpt>
      <trkpt lat="42.69895" lon="9.26915">
        <ele>13.115112</ele>
        <time>2011-09-13T08:06:21Z</time>
      </trkpt>
      <trkpt lat="42.69896" lon="9.26915">
        <ele>13.115112</ele>
        <time>2011-09-13T08:06:22Z</time>
      </trkpt>
      <trkpt lat="42.69906" lon="9.26904">
        <ele>12.153809</ele>
        <time>2011-09-13T08:06:33Z</time>
      </trkpt>
      <trkpt lat="42.69916" lon="9.26899">
        <ele>11.192505</ele>
        <time>2011-09-13T08:06:47Z</time>
      </trkpt>
      <trkpt lat="42.69918" lon="9.26899">
        <ele>11.192505</ele>
        <time>2011-09-13T08:06:49Z</time>
      </trkpt>
      <trkpt lat="42.69935" lon="9.26902">
        <ele>11.673218</ele>
        <time>2011-09-13T08:07:04Z</time>
      </trkpt>
      <trkpt lat="42.69949" lon="9.26925">
        <ele>11.673218</ele>
        <time>2011-09-13T08:07:20Z</time>
      </trkpt>
      <trkpt lat="42.69962" lon="9.26941">
        <ele>12.634399</ele>
        <time>2011-09-13T08:07:37Z</time>
      </trkpt>
      <trkpt lat="42.69969" lon="9.26944">
        <ele>13.115112</ele>
        <time>2011-09-13T08:07:53Z</time>
      </trkpt>
      <trkpt lat="42.69983" lon="9.2695">
        <ele>13.115112</ele>
        <time>2011-09-13T08:08:06Z</time>
      </trkpt>
      <trkpt lat="42.7001" lon="9.26951">
        <ele>12.634399</ele>
        <time>2011-09-13T08:08:25Z</time>
      </trkpt>
      <trkpt lat="42.70031" lon="9.26941">
        <ele>13.595825</ele>
        <time>2011-09-13T08:08:41Z</time>
      </trkpt>
      <trkpt lat="42.70041" lon="9.26935">
        <ele>14.076416</ele>
        <time>2011-09-13T08:08:49Z</time>
      </trkpt>
      <trkpt lat="42.70042" lon="9.26931">
        <ele>13.115112</ele>
        <time>2011-09-13T08:08:51Z</time>
      </trkpt>
      <trkpt lat="42.70058" lon="9.26911">
        <ele>13.595825</ele>
        <time>2011-09-13T08:09:06Z</time>
      </trkpt>
      <trkpt lat="42.70062" lon="9.26899">
        <ele>13.595825</ele>
        <time>2011-09-13T08:09:13Z</time>
      </trkpt>
      <trkpt lat="42.70073" lon="9.26873">
        <ele>13.595825</ele>
        <time>2011-09-13T08:09:29Z</time>
      </trkpt>
      <trkpt lat="42.70079" lon="9.26838">
        <ele>13.115112</ele>
        <time>2011-09-13T08:09:49Z</time>
      </trkpt>
      <trkpt lat="42.70077" lon="9.26811">
        <ele>13.595825</ele>
        <time>2011-09-13T08:10:05Z</time>
      </trkpt>
      <trkpt lat="42.70075" lon="9.26804">
        <ele>13.595825</ele>
        <time>2011-09-13T08:10:09Z</time>
      </trkpt>
      <trkpt lat="42.70074" lon="9.26791">
        <ele>13.115112</ele>
        <time>2011-09-13T08:10:16Z</time>
      </trkpt>
      <trkpt lat="42.70062" lon="9.26765">
        <ele>14.557007</ele>
        <time>2011-09-13T08:10:33Z</time>
      </trkpt>
      <trkpt lat="42.70057" lon="9.26745">
        <ele>14.557007</ele>
        <time>2011-09-13T08:10:45Z</time>
      </trkpt>
      <trkpt lat="42.70055" lon="9.26739">
        <ele>14.557007</ele>
        <time>2011-09-13T08:10:49Z</time>
      </trkpt>
      <trkpt lat="42.70044" lon="9.26712">
        <ele>14.557007</ele>
        <time>2011-09-13T08:11:05Z</time>
      </trkpt>
      <trkpt lat="42.70036" lon="9.2668">
        <ele>14.076416</ele>
        <time>2011-09-13T08:11:23Z</time>
      </trkpt>
      <trkpt lat="42.70025" lon="9.26654">
        <ele>15.03772</ele>
        <time>2011-09-13T08:11:39Z</time>
      </trkpt>
      <trkpt lat="42.70016" lon="9.26622">
        <ele>15.03772</ele>
        <time>2011-09-13T08:11:58Z</time>
      </trkpt>
      <trkpt lat="42.70017" lon="9.26608">
        <ele>15.03772</ele>
        <time>2011-09-13T08:12:07Z</time>
      </trkpt>
      <trkpt lat="42.7002" lon="9.26601">
        <ele>14.557007</ele>
        <time>2011-09-13T08:12:12Z</time>
      </trkpt>
      <trkpt lat="42.70021" lon="9.26594">
        <ele>15.03772</ele>
        <time>2011-09-13T08:12:16Z</time>
      </trkpt>
      <trkpt lat="42.70026" lon="9.26561">
        <ele>13.595825</ele>
        <time>2011-09-13T08:12:35Z</time>
      </trkpt>
      <trkpt lat="42.70028" lon="9.26542">
        <ele>13.595825</ele>
        <time>2011-09-13T08:12:45Z</time>
      </trkpt>
      <trkpt lat="42.70028" lon="9.26513">
        <ele>13.115112</ele>
        <time>2011-09-13T08:13:01Z</time>
      </trkpt>
      <trkpt lat="42.70027" lon="9.26473">
        <ele>13.595825</ele>
        <time>2011-09-13T08:13:22Z</time>
      </trkpt>
      <trkpt lat="42.70027" lon="9.2644">
        <ele>14.557007</ele>
        <time>2011-09-13T08:13:40Z</time>
      </trkpt>
      <trkpt lat="42.70027" lon="9.26438">
        <ele>14.076416</ele>
        <time>2011-09-13T08:13:41Z</time>
      </trkpt>
      <trkpt lat="42.70025" lon="9.26429">
        <ele>14.557007</ele>
        <time>2011-09-13T08:13:46Z</time>
      </trkpt>
      <trkpt lat="42.70027" lon="9.26385">
        <ele>13.115112</ele>
        <time>2011-09-13T08:14:10Z</time>
      </trkpt>
      <trkpt lat="42.70021" lon="9.26349">
        <ele>13.115112</ele>
        <time>2011-09-13T08:14:29Z</time>
      </trkpt>
      <trkpt lat="42.70016" lon="9.26317">
        <ele>13.115112</ele>
        <time>2011-09-13T08:14:47Z</time>
      </trkpt>
      <trkpt lat="42.7001" lon="9.26291">
        <ele>12.153809</ele>
        <time>2011-09-13T08:15:03Z</time>
      </trkpt>
      <trkpt lat="42.7" lon="9.26278">
        <ele>9.75061</ele>
        <time>2011-09-13T08:15:18Z</time>
      </trkpt>
      <trkpt lat="42.69999" lon="9.26277">
        <ele>9.75061</ele>
        <time>2011-09-13T08:15:19Z</time>
      </trkpt>
      <trkpt lat="42.69991" lon="9.26272">
        <ele>9.269897</ele>
        <time>2011-09-13T08:15:26Z</time>
      </trkpt>
      <trkpt lat="42.69982" lon="9.26268">
        <ele>9.269897</ele>
        <time>2011-09-13T08:15:32Z</time>
      </trkpt>
      <trkpt lat="42.69978" lon="9.26262">
        <ele>8.789185</ele>
        <time>2011-09-13T08:15:37Z</time>
      </trkpt>
      <trkpt lat="42.69976" lon="9.26255">
        <ele>9.269897</ele>
        <time>2011-09-13T08:15:42Z</time>
      </trkpt>
      <trkpt lat="42.69976" lon="9.26239">
        <ele>8.789185</ele>
        <time>2011-09-13T08:15:56Z</time>
      </trkpt>
      <trkpt lat="42.6998" lon="9.26223">
        <ele>11.192505</ele>
        <time>2011-09-13T08:16:11Z</time>
      </trkpt>
      <trkpt lat="42.69982" lon="9.26206">
        <ele>11.673218</ele>
        <time>2011-09-13T08:16:26Z</time>
      </trkpt>
      <trkpt lat="42.69983" lon="9.26195">
        <ele>13.115112</ele>
        <time>2011-09-13T08:16:38Z</time>
      </trkpt>
      <trkpt lat="42.69984" lon="9.26176">
        <ele>13.115112</ele>
        <time>2011-09-13T08:16:51Z</time>
      </trkpt>
      <trkpt lat="42.69984" lon="9.26174">
        <ele>13.115112</ele>
        <time>2011-09-13T08:16:53Z</time>
      </trkpt>
      <trkpt lat="42.6999" lon="9.26147">
        <ele>12.153809</ele>
        <time>2011-09-13T08:17:11Z</time>
      </trkpt>
      <trkpt lat="42.6999" lon="9.26146">
        <ele>12.153809</ele>
        <time>2011-09-13T08:17:12Z</time>
      </trkpt>
      <trkpt lat="42.69991" lon="9.26133">
        <ele>13.115112</ele>
        <time>2011-09-13T08:17:24Z</time>
      </trkpt>
      <trkpt lat="42.69993" lon="9.2612">
        <ele>12.634399</ele>
        <time>2011-09-13T08:17:34Z</time>
      </trkpt>
      <trkpt lat="42.69986" lon="9.26111">
        <ele>15.03772</ele>
        <time>2011-09-13T08:17:46Z</time>
      </trkpt>
      <trkpt lat="42.69987" lon="9.26096">
        <ele>14.076416</ele>
        <time>2011-09-13T08:17:59Z</time>
      </trkpt>
      <trkpt lat="42.69987" lon="9.26083">
        <ele>14.076416</ele>
        <time>2011-09-13T08:18:13Z</time>
      </trkpt>
      <trkpt lat="42.69989" lon="9.26074">
        <ele>12.153809</ele>
        <time>2011-09-13T08:18:27Z</time>
      </trkpt>
      <trkpt lat="42.69993" lon="9.26075">
        <ele>10.711792</ele>
        <time>2011-09-13T08:18:39Z</time>
      </trkpt>
      <trkpt lat="42.69994" lon="9.26073">
        <ele>10.231201</ele>
        <time>2011-09-13T08:18:42Z</time>
      </trkpt>
      <trkpt lat="42.69993" lon="9.2606">
        <ele>9.75061</ele>
        <time>2011-09-13T08:18:53Z</time>
      </trkpt>
      <trkpt lat="42.70002" lon="9.26045">
        <ele>9.269897</ele>
        <time>2011-09-13T08:19:05Z</time>
      </trkpt>
      <trkpt lat="42.70013" lon="9.26019">
        <ele>8.789185</ele>
        <time>2011-09-13T08:19:23Z</time>
      </trkpt>
      <trkpt lat="42.70024" lon="9.25994">
        <ele>8.789185</ele>
        <time>2011-09-13T08:19:42Z</time>
      </trkpt>
      <trkpt lat="42.70029" lon="9.25981">
        <ele>8.308594</ele>
        <time>2011-09-13T08:19:50Z</time>
      </trkpt>
      <trkpt lat="42.70033" lon="9.25973">
        <ele>8.308594</ele>
        <time>2011-09-13T08:19:56Z</time>
      </trkpt>
      <trkpt lat="42.70041" lon="9.25955">
        <ele>7.827881</ele>
        <time>2011-09-13T08:20:13Z</time>
      </trkpt>
      <trkpt lat="42.70055" lon="9.25932">
        <ele>7.827881</ele>
        <time>2011-09-13T08:20:29Z</time>
      </trkpt>
      <trkpt lat="42.70061" lon="9.25925">
        <ele>7.827881</ele>
        <time>2011-09-13T08:20:35Z</time>
      </trkpt>
      <trkpt lat="42.70074" lon="9.25912">
        <ele>7.347168</ele>
        <time>2011-09-13T08:20:47Z</time>
      </trkpt>
      <trkpt lat="42.70074" lon="9.25906">
        <ele>8.789185</ele>
        <time>2011-09-13T08:20:53Z</time>
      </trkpt>
      <trkpt lat="42.70083" lon="9.25904">
        <ele>11.673218</ele>
        <time>2011-09-13T08:21:06Z</time>
      </trkpt>
      <trkpt lat="42.70087" lon="9.25899">
        <ele>12.634399</ele>
        <time>2011-09-13T08:21:18Z</time>
      </trkpt>
      <trkpt lat="42.70089" lon="9.25907">
        <ele>11.673218</ele>
        <time>2011-09-13T08:21:32Z</time>
      </trkpt>
      <trkpt lat="42.70089" lon="9.25907">
        <ele>12.153809</ele>
        <time>2011-09-13T08:21:35Z</time>
      </trkpt>
      <trkpt lat="42.70106" lon="9.259">
        <ele>11.192505</ele>
        <time>2011-09-13T08:21:49Z</time>
      </trkpt>
      <trkpt lat="42.70111" lon="9.25896">
        <ele>12.153809</ele>
        <time>2011-09-13T08:21:53Z</time>
      </trkpt>
      <trkpt lat="42.70118" lon="9.25892">
        <ele>11.673218</ele>
        <time>2011-09-13T08:21:58Z</time>
      </trkpt>
      <trkpt lat="42.70138" lon="9.25868">
        <ele>12.153809</ele>
        <time>2011-09-13T08:22:17Z</time>
      </trkpt>
      <trkpt lat="42.70151" lon="9.25848">
        <ele>11.673218</ele>
        <time>2011-09-13T08:22:32Z</time>
      </trkpt>
      <trkpt lat="42.70158" lon="9.25838">
        <ele>11.673218</ele>
        <time>2011-09-13T08:22:47Z</time>
      </trkpt>
      <trkpt lat="42.70159" lon="9.25834">
        <ele>11.192505</ele>
        <time>2011-09-13T08:22:49Z</time>
      </trkpt>
      <trkpt lat="42.70171" lon="9.25807">
        <ele>12.153809</ele>
        <time>2011-09-13T08:23:04Z</time>
      </trkpt>
      <trkpt lat="42.7018" lon="9.25809">
        <ele>11.673218</ele>
        <time>2011-09-13T08:23:10Z</time>
      </trkpt>
      <trkpt lat="42.70195" lon="9.25803">
        <ele>12.153809</ele>
        <time>2011-09-13T08:23:20Z</time>
      </trkpt>
      <trkpt lat="42.70216" lon="9.25804">
        <ele>14.557007</ele>
        <time>2011-09-13T08:23:36Z</time>
      </trkpt>
      <trkpt lat="42.70219" lon="9.25806">
        <ele>14.557007</ele>
        <time>2011-09-13T08:23:39Z</time>
      </trkpt>
      <trkpt lat="42.70232" lon="9.25819">
        <ele>13.595825</ele>
        <time>2011-09-13T08:23:52Z</time>
      </trkpt>
      <trkpt lat="42.70251" lon="9.25823">
        <ele>13.115112</ele>
        <time>2011-09-13T08:24:07Z</time>
      </trkpt>
      <trkpt lat="42.70258" lon="9.25837">
        <ele>13.595825</ele>
        <time>2011-09-13T08:24:16Z</time>
      </trkpt>
      <trkpt lat="42.70278" lon="9.25853">
        <ele>13.595825</ele>
        <time>2011-09-13T08:24:34Z</time>
      </trkpt>
      <trkpt lat="42.70303" lon="9.25858">
        <ele>12.634399</ele>
        <time>2011-09-13T08:24:53Z</time>
      </trkpt>
      <trkpt lat="42.70324" lon="9.25846">
        <ele>11.673218</ele>
        <time>2011-09-13T08:25:09Z</time>
      </trkpt>
      <trkpt lat="42.7034" lon="9.25819">
        <ele>10.711792</ele>
        <time>2011-09-13T08:25:28Z</time>
      </trkpt>
      <trkpt lat="42.70342" lon="9.258">
        <ele>10.711792</ele>
        <time>2011-09-13T08:25:48Z</time>
      </trkpt>
      <trkpt lat="42.70342" lon="9.25778">
        <ele>10.711792</ele>
        <time>2011-09-13T08:26:00Z</time>
      </trkpt>
      <trkpt lat="42.70347" lon="9.25773">
        <ele>9.75061</ele>
        <time>2011-09-13T08:26:04Z</time>
      </trkpt>
      <trkpt lat="42.7036" lon="9.25767">
        <ele>11.192505</ele>
        <time>2011-09-13T08:26:14Z</time>
      </trkpt>
      <trkpt lat="42.70375" lon="9.25746">
        <ele>9.75061</ele>
        <time>2011-09-13T08:26:30Z</time>
      </trkpt>
      <trkpt lat="42.70398" lon="9.25737">
        <ele>10.231201</ele>
        <time>2011-09-13T08:26:47Z</time>
      </trkpt>
      <trkpt lat="42.70414" lon="9.25738">
        <ele>11.673218</ele>
        <time>2011-09-13T08:27:03Z</time>
      </trkpt>
      <trkpt lat="42.70416" lon="9.25735">
        <ele>12.634399</ele>
        <time>2011-09-13T08:27:06Z</time>
      </trkpt>
      <trkpt lat="42.70415" lon="9.25728">
        <ele>14.076416</ele>
        <time>2011-09-13T08:27:12Z</time>
      </trkpt>
      <trkpt lat="42.70418" lon="9.25727">
        <ele>14.557007</ele>
        <time>2011-09-13T08:27:15Z</time>
      </trkpt>
      <trkpt lat="42.70428" lon="9.25721">
        <ele>16.479736</ele>
        <time>2011-09-13T08:27:26Z</time>
      </trkpt>
      <trkpt lat="42.7044" lon="9.25706">
        <ele>18.883057</ele>
        <time>2011-09-13T08:27:41Z</time>
      </trkpt>
      <trkpt lat="42.70453" lon="9.25696">
        <ele>20.805664</ele>
        <time>2011-09-13T08:27:55Z</time>
      </trkpt>
      <trkpt lat="42.7046" lon="9.25692">
        <ele>18.883057</ele>
        <time>2011-09-13T08:28:04Z</time>
      </trkpt>
      <trkpt lat="42.70469" lon="9.25687">
        <ele>18.402344</ele>
        <time>2011-09-13T08:28:11Z</time>
      </trkpt>
      <trkpt lat="42.70474" lon="9.25683">
        <ele>18.883057</ele>
        <time>2011-09-13T08:28:16Z</time>
      </trkpt>
      <trkpt lat="42.70482" lon="9.25674">
        <ele>19.84436</ele>
        <time>2011-09-13T08:28:24Z</time>
      </trkpt>
      <trkpt lat="42.70488" lon="9.25645">
        <ele>20.324951</ele>
        <time>2011-09-13T08:28:41Z</time>
      </trkpt>
      <trkpt lat="42.70492" lon="9.25623">
        <ele>19.84436</ele>
        <time>2011-09-13T08:28:56Z</time>
      </trkpt>
      <trkpt lat="42.70502" lon="9.25597">
        <ele>21.286377</ele>
        <time>2011-09-13T08:29:13Z</time>
      </trkpt>
      <trkpt lat="42.70506" lon="9.25596">
        <ele>19.84436</ele>
        <time>2011-09-13T08:29:19Z</time>
      </trkpt>
      <trkpt lat="42.70517" lon="9.25575">
        <ele>18.402344</ele>
        <time>2011-09-13T08:29:35Z</time>
      </trkpt>
      <trkpt lat="42.70519" lon="9.25552">
        <ele>16.960449</ele>
        <time>2011-09-13T08:29:51Z</time>
      </trkpt>
      <trkpt lat="42.70519" lon="9.25548">
        <ele>15.999023</ele>
        <time>2011-09-13T08:29:54Z</time>
      </trkpt>
      <trkpt lat="42.70509" lon="9.2553">
        <ele>14.557007</ele>
        <time>2011-09-13T08:30:11Z</time>
      </trkpt>
      <trkpt lat="42.70503" lon="9.25519">
        <ele>12.634399</ele>
        <time>2011-09-13T08:30:26Z</time>
      </trkpt>
      <trkpt lat="42.70499" lon="9.25507">
        <ele>9.269897</ele>
        <time>2011-09-13T08:30:36Z</time>
      </trkpt>
      <trkpt lat="42.70498" lon="9.25503">
        <ele>10.231201</ele>
        <time>2011-09-13T08:30:38Z</time>
      </trkpt>
      <trkpt lat="42.70493" lon="9.25495">
        <ele>9.269897</ele>
        <time>2011-09-13T08:30:46Z</time>
      </trkpt>
      <trkpt lat="42.70491" lon="9.25488">
        <ele>9.269897</ele>
        <time>2011-09-13T08:30:51Z</time>
      </trkpt>
      <trkpt lat="42.70489" lon="9.25483">
        <ele>9.269897</ele>
        <time>2011-09-13T08:30:55Z</time>
      </trkpt>
      <trkpt lat="42.70485" lon="9.25478">
        <ele>8.789185</ele>
        <time>2011-09-13T08:31:01Z</time>
      </trkpt>
      <trkpt lat="42.7048" lon="9.25477">
        <ele>8.789185</ele>
        <time>2011-09-13T08:31:06Z</time>
      </trkpt>
      <trkpt lat="42.70476" lon="9.25473">
        <ele>6.866455</ele>
        <time>2011-09-13T08:31:10Z</time>
      </trkpt>
      <trkpt lat="42.70468" lon="9.25467">
        <ele>6.866455</ele>
        <time>2011-09-13T08:31:21Z</time>
      </trkpt>
      <trkpt lat="42.70467" lon="9.25467">
        <ele>6.385864</ele>
        <time>2011-09-13T08:31:35Z</time>
      </trkpt>
      <trkpt lat="42.70471" lon="9.25469">
        <ele>6.385864</ele>
        <time>2011-09-13T08:31:42Z</time>
      </trkpt>
      <trkpt lat="42.70475" lon="9.25469">
        <ele>8.789185</ele>
        <time>2011-09-13T08:31:52Z</time>
      </trkpt>
      <trkpt lat="42.70479" lon="9.25466">
        <ele>9.269897</ele>
        <time>2011-09-13T08:32:04Z</time>
      </trkpt>
      <trkpt lat="42.70479" lon="9.25461">
        <ele>6.385864</ele>
        <time>2011-09-13T08:32:18Z</time>
      </trkpt>
      <trkpt lat="42.70481" lon="9.25457">
        <ele>6.866455</ele>
        <time>2011-09-13T08:32:28Z</time>
      </trkpt>
      <trkpt lat="42.70487" lon="9.25429">
        <ele>6.385864</ele>
        <time>2011-09-13T08:32:45Z</time>
      </trkpt>
      <trkpt lat="42.70492" lon="9.25396">
        <ele>5.905273</ele>
        <time>2011-09-13T08:33:03Z</time>
      </trkpt>
      <trkpt lat="42.70502" lon="9.25369">
        <ele>6.385864</ele>
        <time>2011-09-13T08:33:22Z</time>
      </trkpt>
      <trkpt lat="42.70505" lon="9.25359">
        <ele>6.866455</ele>
        <time>2011-09-13T08:33:36Z</time>
      </trkpt>
      <trkpt lat="42.7051" lon="9.25361">
        <ele>4.943848</ele>
        <time>2011-09-13T08:33:49Z</time>
      </trkpt>
      <trkpt lat="42.70513" lon="9.2536">
        <ele>5.424561</ele>
        <time>2011-09-13T08:34:04Z</time>
      </trkpt>
      <trkpt lat="42.70514" lon="9.25359">
        <ele>7.347168</ele>
        <time>2011-09-13T08:34:18Z</time>
      </trkpt>
      <trkpt lat="42.70514" lon="9.25358">
        <ele>6.866455</ele>
        <time>2011-09-13T08:34:19Z</time>
      </trkpt>
      <trkpt lat="42.70517" lon="9.25355">
        <ele>6.866455</ele>
        <time>2011-09-13T08:34:32Z</time>
      </trkpt>
      <trkpt lat="42.70522" lon="9.25362">
        <ele>5.905273</ele>
        <time>2011-09-13T08:34:49Z</time>
      </trkpt>
      <trkpt lat="42.70518" lon="9.2536">
        <ele>6.385864</ele>
        <time>2011-09-13T08:35:00Z</time>
      </trkpt>
      <trkpt lat="42.70518" lon="9.2536">
        <ele>4.943848</ele>
        <time>2011-09-13T08:35:09Z</time>
      </trkpt>
      <trkpt lat="42.70517" lon="9.2536">
        <ele>4.943848</ele>
        <time>2011-09-13T08:35:40Z</time>
      </trkpt>
      <trkpt lat="42.70518" lon="9.25359">
        <ele>4.943848</ele>
        <time>2011-09-13T08:36:42Z</time>
      </trkpt>
      <trkpt lat="42.7052" lon="9.25358">
        <ele>7.347168</ele>
        <time>2011-09-13T08:37:04Z</time>
      </trkpt>
      <trkpt lat="42.70526" lon="9.25357">
        <ele>8.789185</ele>
        <time>2011-09-13T08:37:14Z</time>
      </trkpt>
      <trkpt lat="42.70529" lon="9.25356">
        <ele>9.269897</ele>
        <time>2011-09-13T08:37:17Z</time>
      </trkpt>
      <trkpt lat="42.70536" lon="9.25348">
        <ele>12.153809</ele>
        <time>2011-09-13T08:37:32Z</time>
      </trkpt>
      <trkpt lat="42.70545" lon="9.25335">
        <ele>15.03772</ele>
        <time>2011-09-13T08:37:47Z</time>
      </trkpt>
      <trkpt lat="42.7055" lon="9.25326">
        <ele>18.402344</ele>
        <time>2011-09-13T08:37:57Z</time>
      </trkpt>
      <trkpt lat="42.70553" lon="9.25326">
        <ele>18.402344</ele>
        <time>2011-09-13T08:38:02Z</time>
      </trkpt>
      <trkpt lat="42.70562" lon="9.25325">
        <ele>19.84436</ele>
        <time>2011-09-13T08:38:14Z</time>
      </trkpt>
      <trkpt lat="42.70577" lon="9.25321">
        <ele>21.286377</ele>
        <time>2011-09-13T08:38:32Z</time>
      </trkpt>
      <trkpt lat="42.70593" lon="9.25319">
        <ele>19.36377</ele>
        <time>2011-09-13T08:38:50Z</time>
      </trkpt>
      <trkpt lat="42.70601" lon="9.25323">
        <ele>15.999023</ele>
        <time>2011-09-13T08:39:04Z</time>
      </trkpt>
      <trkpt lat="42.70602" lon="9.25326">
        <ele>14.076416</ele>
        <time>2011-09-13T08:39:15Z</time>
      </trkpt>
      <trkpt lat="42.70599" lon="9.25336">
        <ele>11.673218</ele>
        <time>2011-09-13T08:39:28Z</time>
      </trkpt>
      <trkpt lat="42.70612" lon="9.25324">
        <ele>11.192505</ele>
        <time>2011-09-13T08:39:42Z</time>
      </trkpt>
      <trkpt lat="42.70618" lon="9.25321">
        <ele>8.308594</ele>
        <time>2011-09-13T08:39:51Z</time>
      </trkpt>
      <trkpt lat="42.70622" lon="9.25329">
        <ele>6.866455</ele>
        <time>2011-09-13T08:40:02Z</time>
      </trkpt>
      <trkpt lat="42.70632" lon="9.25335">
        <ele>6.866455</ele>
        <time>2011-09-13T08:40:14Z</time>
      </trkpt>
      <trkpt lat="42.70638" lon="9.25338">
        <ele>6.866455</ele>
        <time>2011-09-13T08:40:21Z</time>
      </trkpt>
      <trkpt lat="42.7065" lon="9.25336">
        <ele>7.827881</ele>
        <time>2011-09-13T08:40:36Z</time>
      </trkpt>
      <trkpt lat="42.70657" lon="9.25339">
        <ele>10.711792</ele>
        <time>2011-09-13T08:40:45Z</time>
      </trkpt>
      <trkpt lat="42.70658" lon="9.25355">
        <ele>11.192505</ele>
        <time>2011-09-13T08:41:02Z</time>
      </trkpt>
      <trkpt lat="42.70662" lon="9.25358">
        <ele>14.557007</ele>
        <time>2011-09-13T08:41:12Z</time>
      </trkpt>
      <trkpt lat="42.70663" lon="9.25363">
        <ele>15.518433</ele>
        <time>2011-09-13T08:41:24Z</time>
      </trkpt>
      <trkpt lat="42.70663" lon="9.25364">
        <ele>16.479736</ele>
        <time>2011-09-13T08:41:36Z</time>
      </trkpt>
      <trkpt lat="42.70664" lon="9.25364">
        <ele>15.999023</ele>
        <time>2011-09-13T08:41:41Z</time>
      </trkpt>
      <trkpt lat="42.70671" lon="9.25353">
        <ele>19.36377</ele>
        <time>2011-09-13T08:41:53Z</time>
      </trkpt>
      <trkpt lat="42.70674" lon="9.25366">
        <ele>22.728271</ele>
        <time>2011-09-13T08:42:06Z</time>
      </trkpt>
      <trkpt lat="42.70669" lon="9.25377">
        <ele>19.36377</ele>
        <time>2011-09-13T08:42:19Z</time>
      </trkpt>
      <trkpt lat="42.70669" lon="9.2538">
        <ele>19.36377</ele>
        <time>2011-09-13T08:42:35Z</time>
      </trkpt>
      <trkpt lat="42.70669" lon="9.25383">
        <ele>18.883057</ele>
        <time>2011-09-13T08:42:37Z</time>
      </trkpt>
      <trkpt lat="42.70672" lon="9.25404">
        <ele>16.960449</ele>
        <time>2011-09-13T08:42:55Z</time>
      </trkpt>
      <trkpt lat="42.70672" lon="9.2541">
        <ele>13.595825</ele>
        <time>2011-09-13T08:43:05Z</time>
      </trkpt>
      <trkpt lat="42.70673" lon="9.2542">
        <ele>11.192505</ele>
        <time>2011-09-13T08:43:17Z</time>
      </trkpt>
      <trkpt lat="42.70682" lon="9.25431">
        <ele>11.673218</ele>
        <time>2011-09-13T08:43:27Z</time>
      </trkpt>
      <trkpt lat="42.7069" lon="9.25433">
        <ele>12.634399</ele>
        <time>2011-09-13T08:43:34Z</time>
      </trkpt>
      <trkpt lat="42.70696" lon="9.25432">
        <ele>12.634399</ele>
        <time>2011-09-13T08:43:39Z</time>
      </trkpt>
      <trkpt lat="42.70698" lon="9.25431">
        <ele>13.115112</ele>
        <time>2011-09-13T08:43:41Z</time>
      </trkpt>
      <trkpt lat="42.70718" lon="9.25431">
        <ele>13.115112</ele>
        <time>2011-09-13T08:43:58Z</time>
      </trkpt>
      <trkpt lat="42.70738" lon="9.25431">
        <ele>11.673218</ele>
        <time>2011-09-13T08:44:16Z</time>
      </trkpt>
      <trkpt lat="42.70747" lon="9.25437">
        <ele>12.153809</ele>
        <time>2011-09-13T08:44:24Z</time>
      </trkpt>
      <trkpt lat="42.70749" lon="9.25439">
        <ele>13.595825</ele>
        <time>2011-09-13T08:44:26Z</time>
      </trkpt>
      <trkpt lat="42.70748" lon="9.25451">
        <ele>16.479736</ele>
        <time>2011-09-13T08:44:39Z</time>
      </trkpt>
      <trkpt lat="42.70746" lon="9.25459">
        <ele>15.518433</ele>
        <time>2011-09-13T08:44:48Z</time>
      </trkpt>
      <trkpt lat="42.70745" lon="9.25483">
        <ele>14.557007</ele>
        <time>2011-09-13T08:45:04Z</time>
      </trkpt>
      <trkpt lat="42.70749" lon="9.25505">
        <ele>14.076416</ele>
        <time>2011-09-13T08:45:17Z</time>
      </trkpt>
      <trkpt lat="42.70761" lon="9.25537">
        <ele>14.076416</ele>
        <time>2011-09-13T08:45:37Z</time>
      </trkpt>
      <trkpt lat="42.70761" lon="9.25538">
        <ele>14.076416</ele>
        <time>2011-09-13T08:45:38Z</time>
      </trkpt>
      <trkpt lat="42.70769" lon="9.25558">
        <ele>12.153809</ele>
        <time>2011-09-13T08:45:53Z</time>
      </trkpt>
      <trkpt lat="42.70786" lon="9.25575">
        <ele>12.634399</ele>
        <time>2011-09-13T08:46:08Z</time>
      </trkpt>
      <trkpt lat="42.70811" lon="9.25583">
        <ele>12.634399</ele>
        <time>2011-09-13T08:46:26Z</time>
      </trkpt>
      <trkpt lat="42.70825" lon="9.25581">
        <ele>12.634399</ele>
        <time>2011-09-13T08:46:36Z</time>
      </trkpt>
      <trkpt lat="42.70841" lon="9.25582">
        <ele>13.115112</ele>
        <time>2011-09-13T08:46:48Z</time>
      </trkpt>
      <trkpt lat="42.70851" lon="9.25579">
        <ele>13.115112</ele>
        <time>2011-09-13T08:46:55Z</time>
      </trkpt>
      <trkpt lat="42.70864" lon="9.25577">
        <ele>13.595825</ele>
        <time>2011-09-13T08:47:05Z</time>
      </trkpt>
      <trkpt lat="42.70878" lon="9.25567">
        <ele>13.115112</ele>
        <time>2011-09-13T08:47:19Z</time>
      </trkpt>
      <trkpt lat="42.70886" lon="9.25558">
        <ele>12.634399</ele>
        <time>2011-09-13T08:47:32Z</time>
      </trkpt>
      <trkpt lat="42.70889" lon="9.25552">
        <ele>11.673218</ele>
        <time>2011-09-13T08:47:36Z</time>
      </trkpt>
      <trkpt lat="42.70902" lon="9.25544">
        <ele>10.711792</ele>
        <time>2011-09-13T08:47:45Z</time>
      </trkpt>
      <trkpt lat="42.70908" lon="9.25536">
        <ele>10.711792</ele>
        <time>2011-09-13T08:47:51Z</time>
      </trkpt>
      <trkpt lat="42.70927" lon="9.25519">
        <ele>10.711792</ele>
        <time>2011-09-13T08:48:06Z</time>
      </trkpt>
      <trkpt lat="42.70937" lon="9.25514">
        <ele>8.789185</ele>
        <time>2011-09-13T08:48:19Z</time>
      </trkpt>
      <trkpt lat="42.70941" lon="9.25513">
        <ele>7.347168</ele>
        <time>2011-09-13T08:48:27Z</time>
      </trkpt>
      <trkpt lat="42.70955" lon="9.25514">
        <ele>9.75061</ele>
        <time>2011-09-13T08:48:41Z</time>
      </trkpt>
      <trkpt lat="42.70974" lon="9.2552">
        <ele>10.711792</ele>
        <time>2011-09-13T08:48:58Z</time>
      </trkpt>
      <trkpt lat="42.70994" lon="9.25509">
        <ele>12.634399</ele>
        <time>2011-09-13T08:49:15Z</time>
      </trkpt>
      <trkpt lat="42.70998" lon="9.25505">
        <ele>12.634399</ele>
        <time>2011-09-13T08:49:18Z</time>
      </trkpt>
      <trkpt lat="42.70999" lon="9.25499">
        <ele>12.634399</ele>
        <time>2011-09-13T08:49:22Z</time>
      </trkpt>
      <trkpt lat="42.71008" lon="9.25483">
        <ele>14.076416</ele>
        <time>2011-09-13T08:49:34Z</time>
      </trkpt>
      <trkpt lat="42.71019" lon="9.25482">
        <ele>13.595825</ele>
        <time>2011-09-13T08:49:47Z</time>
      </trkpt>
      <trkpt lat="42.71021" lon="9.25482">
        <ele>13.595825</ele>
        <time>2011-09-13T08:49:50Z</time>
      </trkpt>
      <trkpt lat="42.7104" lon="9.25495">
        <ele>14.076416</ele>
        <time>2011-09-13T08:50:06Z</time>
      </trkpt>
      <trkpt lat="42.71053" lon="9.25507">
        <ele>14.076416</ele>
        <time>2011-09-13T08:50:20Z</time>
      </trkpt>
      <trkpt lat="42.71065" lon="9.2551">
        <ele>16.479736</ele>
        <time>2011-09-13T08:50:31Z</time>
      </trkpt>
      <trkpt lat="42.71071" lon="9.25512">
        <ele>16.960449</ele>
        <time>2011-09-13T08:50:38Z</time>
      </trkpt>
      <trkpt lat="42.71086" lon="9.25522">
        <ele>16.479736</ele>
        <time>2011-09-13T08:50:55Z</time>
      </trkpt>
      <trkpt lat="42.71087" lon="9.25523">
        <ele>16.479736</ele>
        <time>2011-09-13T08:50:56Z</time>
      </trkpt>
      <trkpt lat="42.71094" lon="9.25523">
        <ele>16.479736</ele>
        <time>2011-09-13T08:51:01Z</time>
      </trkpt>
      <trkpt lat="42.71102" lon="9.25522">
        <ele>17.441162</ele>
        <time>2011-09-13T08:51:08Z</time>
      </trkpt>
      <trkpt lat="42.71106" lon="9.2552">
        <ele>17.921753</ele>
        <time>2011-09-13T08:51:12Z</time>
      </trkpt>
      <trkpt lat="42.71109" lon="9.2552">
        <ele>17.921753</ele>
        <time>2011-09-13T08:51:27Z</time>
      </trkpt>
      <trkpt lat="42.71109" lon="9.2552">
        <ele>17.441162</ele>
        <time>2011-09-13T08:51:28Z</time>
      </trkpt>
      <trkpt lat="42.71115" lon="9.25512">
        <ele>18.402344</ele>
        <time>2011-09-13T08:51:35Z</time>
      </trkpt>
      <trkpt lat="42.71114" lon="9.25509">
        <ele>18.883057</ele>
        <time>2011-09-13T08:51:37Z</time>
      </trkpt>
      <trkpt lat="42.71117" lon="9.25504">
        <ele>17.921753</ele>
        <time>2011-09-13T08:51:41Z</time>
      </trkpt>
      <trkpt lat="42.71121" lon="9.25496">
        <ele>17.441162</ele>
        <time>2011-09-13T08:51:47Z</time>
      </trkpt>
      <trkpt lat="42.71128" lon="9.25482">
        <ele>14.557007</ele>
        <time>2011-09-13T08:51:58Z</time>
      </trkpt>
      <trkpt lat="42.71132" lon="9.25476">
        <ele>13.595825</ele>
        <time>2011-09-13T08:52:04Z</time>
      </trkpt>
      <trkpt lat="42.71143" lon="9.25474">
        <ele>13.115112</ele>
        <time>2011-09-13T08:52:13Z</time>
      </trkpt>
      <trkpt lat="42.71144" lon="9.25479">
        <ele>13.115112</ele>
        <time>2011-09-13T08:52:17Z</time>
      </trkpt>
      <trkpt lat="42.7116" lon="9.2549">
        <ele>13.595825</ele>
        <time>2011-09-13T08:52:36Z</time>
      </trkpt>
      <trkpt lat="42.71162" lon="9.25487">
        <ele>14.557007</ele>
        <time>2011-09-13T08:52:42Z</time>
      </trkpt>
      <trkpt lat="42.7117" lon="9.25484">
        <ele>15.03772</ele>
        <time>2011-09-13T08:52:49Z</time>
      </trkpt>
      <trkpt lat="42.71173" lon="9.25482">
        <ele>15.518433</ele>
        <time>2011-09-13T08:52:52Z</time>
      </trkpt>
      <trkpt lat="42.71178" lon="9.25482">
        <ele>15.518433</ele>
        <time>2011-09-13T08:52:56Z</time>
      </trkpt>
      <trkpt lat="42.71196" lon="9.25474">
        <ele>16.479736</ele>
        <time>2011-09-13T08:53:12Z</time>
      </trkpt>
      <trkpt lat="42.71198" lon="9.25474">
        <ele>17.441162</ele>
        <time>2011-09-13T08:53:14Z</time>
      </trkpt>
      <trkpt lat="42.71212" lon="9.25476">
        <ele>20.324951</ele>
        <time>2011-09-13T08:53:30Z</time>
      </trkpt>
      <trkpt lat="42.71221" lon="9.25477">
        <ele>22.247559</ele>
        <time>2011-09-13T08:53:43Z</time>
      </trkpt>
      <trkpt lat="42.7123" lon="9.25473">
        <ele>24.170288</ele>
        <time>2011-09-13T08:53:59Z</time>
      </trkpt>
      <trkpt lat="42.71245" lon="9.25477">
        <ele>21.766968</ele>
        <time>2011-09-13T08:54:15Z</time>
      </trkpt>
      <trkpt lat="42.71254" lon="9.25483">
        <ele>19.36377</ele>
        <time>2011-09-13T08:54:29Z</time>
      </trkpt>
      <trkpt lat="42.71255" lon="9.25484">
        <ele>19.36377</ele>
        <time>2011-09-13T08:54:30Z</time>
      </trkpt>
      <trkpt lat="42.71266" lon="9.25495">
        <ele>16.479736</ele>
        <time>2011-09-13T08:54:45Z</time>
      </trkpt>
      <trkpt lat="42.71269" lon="9.25496">
        <ele>15.518433</ele>
        <time>2011-09-13T08:54:48Z</time>
      </trkpt>
      <trkpt lat="42.71292" lon="9.25498">
        <ele>15.03772</ele>
        <time>2011-09-13T08:55:04Z</time>
      </trkpt>
      <trkpt lat="42.7131" lon="9.2549">
        <ele>13.115112</ele>
        <time>2011-09-13T08:55:19Z</time>
      </trkpt>
      <trkpt lat="42.7132" lon="9.25479">
        <ele>12.634399</ele>
        <time>2011-09-13T08:55:31Z</time>
      </trkpt>
      <trkpt lat="42.7133" lon="9.25483">
        <ele>11.673218</ele>
        <time>2011-09-13T08:55:40Z</time>
      </trkpt>
      <trkpt lat="42.71339" lon="9.25495">
        <ele>13.595825</ele>
        <time>2011-09-13T08:55:51Z</time>
      </trkpt>
      <trkpt lat="42.71357" lon="9.25513">
        <ele>13.595825</ele>
        <time>2011-09-13T08:56:11Z</time>
      </trkpt>
      <trkpt lat="42.71357" lon="9.25516">
        <ele>13.115112</ele>
        <time>2011-09-13T08:56:14Z</time>
      </trkpt>
      <trkpt lat="42.71372" lon="9.25526">
        <ele>13.115112</ele>
        <time>2011-09-13T08:56:28Z</time>
      </trkpt>
      <trkpt lat="42.71386" lon="9.25531">
        <ele>11.192505</ele>
        <time>2011-09-13T08:56:44Z</time>
      </trkpt>
      <trkpt lat="42.714" lon="9.25532">
        <ele>10.231201</ele>
        <time>2011-09-13T08:56:56Z</time>
      </trkpt>
      <trkpt lat="42.7142" lon="9.25537">
        <ele>9.75061</ele>
        <time>2011-09-13T08:57:11Z</time>
      </trkpt>
      <trkpt lat="42.71423" lon="9.25539">
        <ele>10.231201</ele>
        <time>2011-09-13T08:57:13Z</time>
      </trkpt>
      <trkpt lat="42.71438" lon="9.25549">
        <ele>10.711792</ele>
        <time>2011-09-13T08:57:26Z</time>
      </trkpt>
      <trkpt lat="42.71451" lon="9.25556">
        <ele>12.153809</ele>
        <time>2011-09-13T08:57:43Z</time>
      </trkpt>
      <trkpt lat="42.7146" lon="9.25559">
        <ele>13.595825</ele>
        <time>2011-09-13T08:57:54Z</time>
      </trkpt>
      <trkpt lat="42.71475" lon="9.25559">
        <ele>15.999023</ele>
        <time>2011-09-13T08:58:11Z</time>
      </trkpt>
      <trkpt lat="42.71477" lon="9.25558">
        <ele>17.441162</ele>
        <time>2011-09-13T08:58:13Z</time>
      </trkpt>
      <trkpt lat="42.71483" lon="9.25557">
        <ele>19.84436</ele>
        <time>2011-09-13T08:58:22Z</time>
      </trkpt>
      <trkpt lat="42.71491" lon="9.25558">
        <ele>22.247559</ele>
        <time>2011-09-13T08:58:37Z</time>
      </trkpt>
      <trkpt lat="42.71499" lon="9.25557">
        <ele>24.170288</ele>
        <time>2011-09-13T08:58:49Z</time>
      </trkpt>
      <trkpt lat="42.71509" lon="9.25552">
        <ele>26.092896</ele>
        <time>2011-09-13T08:59:07Z</time>
      </trkpt>
      <trkpt lat="42.71518" lon="9.25554">
        <ele>29.45752</ele>
        <time>2011-09-13T08:59:21Z</time>
      </trkpt>
      <trkpt lat="42.71522" lon="9.25547">
        <ele>33.302856</ele>
        <time>2011-09-13T08:59:33Z</time>
      </trkpt>
      <trkpt lat="42.71527" lon="9.25536">
        <ele>35.706055</ele>
        <time>2011-09-13T08:59:48Z</time>
      </trkpt>
      <trkpt lat="42.71537" lon="9.25527">
        <ele>38.590088</ele>
        <time>2011-09-13T09:00:04Z</time>
      </trkpt>
      <trkpt lat="42.71538" lon="9.25526">
        <ele>38.590088</ele>
        <time>2011-09-13T09:00:05Z</time>
      </trkpt>
      <trkpt lat="42.71545" lon="9.25515">
        <ele>40.512817</ele>
        <time>2011-09-13T09:00:16Z</time>
      </trkpt>
      <trkpt lat="42.71551" lon="9.25497">
        <ele>42.435425</ele>
        <time>2011-09-13T09:00:34Z</time>
      </trkpt>
      <trkpt lat="42.71551" lon="9.25497">
        <ele>43.396606</ele>
        <time>2011-09-13T09:00:42Z</time>
      </trkpt>
      <trkpt lat="42.71552" lon="9.25486">
        <ele>45.319214</ele>
        <time>2011-09-13T09:00:58Z</time>
      </trkpt>
      <trkpt lat="42.71553" lon="9.2548">
        <ele>44.838623</ele>
        <time>2011-09-13T09:01:03Z</time>
      </trkpt>
      <trkpt lat="42.71556" lon="9.2547">
        <ele>44.358032</ele>
        <time>2011-09-13T09:01:09Z</time>
      </trkpt>
      <trkpt lat="42.71557" lon="9.25459">
        <ele>44.358032</ele>
        <time>2011-09-13T09:01:15Z</time>
      </trkpt>
      <trkpt lat="42.71559" lon="9.2545">
        <ele>44.358032</ele>
        <time>2011-09-13T09:01:21Z</time>
      </trkpt>
      <trkpt lat="42.71564" lon="9.25431">
        <ele>48.203369</ele>
        <time>2011-09-13T09:01:35Z</time>
      </trkpt>
      <trkpt lat="42.71565" lon="9.25417">
        <ele>49.164551</ele>
        <time>2011-09-13T09:01:46Z</time>
      </trkpt>
      <trkpt lat="42.71568" lon="9.25401">
        <ele>50.606567</ele>
        <time>2011-09-13T09:01:59Z</time>
      </trkpt>
      <trkpt lat="42.7157" lon="9.25395">
        <ele>51.567871</ele>
        <time>2011-09-13T09:02:03Z</time>
      </trkpt>
      <trkpt lat="42.71572" lon="9.25388">
        <ele>52.048584</ele>
        <time>2011-09-13T09:02:08Z</time>
      </trkpt>
      <trkpt lat="42.7158" lon="9.25383">
        <ele>53.009766</ele>
        <time>2011-09-13T09:02:21Z</time>
      </trkpt>
      <trkpt lat="42.71582" lon="9.25381">
        <ele>53.971191</ele>
        <time>2011-09-13T09:02:24Z</time>
      </trkpt>
      <trkpt lat="42.71592" lon="9.25364">
        <ele>56.374512</ele>
        <time>2011-09-13T09:02:40Z</time>
      </trkpt>
      <trkpt lat="42.71592" lon="9.25358">
        <ele>57.335815</ele>
        <time>2011-09-13T09:02:46Z</time>
      </trkpt>
      <trkpt lat="42.71595" lon="9.25352">
        <ele>59.258423</ele>
        <time>2011-09-13T09:02:51Z</time>
      </trkpt>
      <trkpt lat="42.71598" lon="9.25347">
        <ele>59.258423</ele>
        <time>2011-09-13T09:02:56Z</time>
      </trkpt>
      <trkpt lat="42.71614" lon="9.25339">
        <ele>61.661743</ele>
        <time>2011-09-13T09:03:13Z</time>
      </trkpt>
      <trkpt lat="42.71624" lon="9.25324">
        <ele>64.545654</ele>
        <time>2011-09-13T09:03:29Z</time>
      </trkpt>
      <trkpt lat="42.71641" lon="9.25331">
        <ele>64.065063</ele>
        <time>2011-09-13T09:03:47Z</time>
      </trkpt>
      <trkpt lat="42.71642" lon="9.25331">
        <ele>63.103638</ele>
        <time>2011-09-13T09:03:49Z</time>
      </trkpt>
      <trkpt lat="42.71651" lon="9.25318">
        <ele>63.103638</ele>
        <time>2011-09-13T09:04:07Z</time>
      </trkpt>
      <trkpt lat="42.7165" lon="9.25316">
        <ele>64.065063</ele>
        <time>2011-09-13T09:04:21Z</time>
      </trkpt>
      <trkpt lat="42.71637" lon="9.25307">
        <ele>65.026367</ele>
        <time>2011-09-13T09:04:37Z</time>
      </trkpt>
      <trkpt lat="42.71637" lon="9.25311">
        <ele>64.065063</ele>
        <time>2011-09-13T09:04:51Z</time>
      </trkpt>
      <trkpt lat="42.71636" lon="9.25309">
        <ele>63.584351</ele>
        <time>2011-09-13T09:05:31Z</time>
      </trkpt>
      <trkpt lat="42.71634" lon="9.25309">
        <ele>64.545654</ele>
        <time>2011-09-13T09:06:19Z</time>
      </trkpt>
      <trkpt lat="42.71631" lon="9.25304">
        <ele>64.545654</ele>
        <time>2011-09-13T09:06:31Z</time>
      </trkpt>
      <trkpt lat="42.7163" lon="9.25297">
        <ele>63.584351</ele>
        <time>2011-09-13T09:06:40Z</time>
      </trkpt>
      <trkpt lat="42.71632" lon="9.25285">
        <ele>61.18103</ele>
        <time>2011-09-13T09:06:56Z</time>
      </trkpt>
      <trkpt lat="42.71643" lon="9.25278">
        <ele>61.18103</ele>
        <time>2011-09-13T09:07:11Z</time>
      </trkpt>
      <trkpt lat="42.71656" lon="9.25272">
        <ele>61.661743</ele>
        <time>2011-09-13T09:07:26Z</time>
      </trkpt>
      <trkpt lat="42.71663" lon="9.25268">
        <ele>60.700317</ele>
        <time>2011-09-13T09:07:34Z</time>
      </trkpt>
      <trkpt lat="42.7167" lon="9.25249">
        <ele>59.739136</ele>
        <time>2011-09-13T09:07:48Z</time>
      </trkpt>
      <trkpt lat="42.71675" lon="9.25237">
        <ele>57.816528</ele>
        <time>2011-09-13T09:07:58Z</time>
      </trkpt>
      <trkpt lat="42.7168" lon="9.25221">
        <ele>54.451782</ele>
        <time>2011-09-13T09:08:16Z</time>
      </trkpt>
      <trkpt lat="42.71682" lon="9.25217">
        <ele>52.529175</ele>
        <time>2011-09-13T09:08:21Z</time>
      </trkpt>
      <trkpt lat="42.71683" lon="9.2521">
        <ele>52.529175</ele>
        <time>2011-09-13T09:08:25Z</time>
      </trkpt>
      <trkpt lat="42.71688" lon="9.25198">
        <ele>53.490479</ele>
        <time>2011-09-13T09:08:34Z</time>
      </trkpt>
      <trkpt lat="42.71696" lon="9.25193">
        <ele>55.413086</ele>
        <time>2011-09-13T09:08:44Z</time>
      </trkpt>
      <trkpt lat="42.717" lon="9.25185">
        <ele>56.374512</ele>
        <time>2011-09-13T09:08:53Z</time>
      </trkpt>
      <trkpt lat="42.71704" lon="9.25171">
        <ele>58.297119</ele>
        <time>2011-09-13T09:09:04Z</time>
      </trkpt>
      <trkpt lat="42.71708" lon="9.25167">
        <ele>58.77771</ele>
        <time>2011-09-13T09:09:08Z</time>
      </trkpt>
      <trkpt lat="42.71713" lon="9.25158">
        <ele>59.739136</ele>
        <time>2011-09-13T09:09:16Z</time>
      </trkpt>
      <trkpt lat="42.71716" lon="9.25149">
        <ele>59.739136</ele>
        <time>2011-09-13T09:09:22Z</time>
      </trkpt>
      <trkpt lat="42.71721" lon="9.25124">
        <ele>59.258423</ele>
        <time>2011-09-13T09:09:39Z</time>
      </trkpt>
      <trkpt lat="42.71722" lon="9.25123">
        <ele>58.77771</ele>
        <time>2011-09-13T09:09:40Z</time>
      </trkpt>
      <trkpt lat="42.71726" lon="9.25116">
        <ele>58.77771</ele>
        <time>2011-09-13T09:09:46Z</time>
      </trkpt>
      <trkpt lat="42.7173" lon="9.251">
        <ele>56.374512</ele>
        <time>2011-09-13T09:09:59Z</time>
      </trkpt>
      <trkpt lat="42.71734" lon="9.25094">
        <ele>54.451782</ele>
        <time>2011-09-13T09:10:04Z</time>
      </trkpt>
      <trkpt lat="42.71741" lon="9.25089">
        <ele>53.971191</ele>
        <time>2011-09-13T09:10:11Z</time>
      </trkpt>
      <trkpt lat="42.71741" lon="9.2506">
        <ele>53.490479</ele>
        <time>2011-09-13T09:10:26Z</time>
      </trkpt>
      <trkpt lat="42.71749" lon="9.25044">
        <ele>51.567871</ele>
        <time>2011-09-13T09:10:42Z</time>
      </trkpt>
      <trkpt lat="42.71752" lon="9.25036">
        <ele>49.164551</ele>
        <time>2011-09-13T09:10:56Z</time>
      </trkpt>
      <trkpt lat="42.71756" lon="9.25037">
        <ele>48.68396</ele>
        <time>2011-09-13T09:11:07Z</time>
      </trkpt>
      <trkpt lat="42.71766" lon="9.25041">
        <ele>46.76123</ele>
        <time>2011-09-13T09:11:23Z</time>
      </trkpt>
      <trkpt lat="42.71767" lon="9.25032">
        <ele>43.396606</ele>
        <time>2011-09-13T09:11:33Z</time>
      </trkpt>
      <trkpt lat="42.71769" lon="9.25023">
        <ele>41.473999</ele>
        <time>2011-09-13T09:11:46Z</time>
      </trkpt>
      <trkpt lat="42.71769" lon="9.25013">
        <ele>39.070679</ele>
        <time>2011-09-13T09:11:58Z</time>
      </trkpt>
      <trkpt lat="42.71773" lon="9.25007">
        <ele>37.628662</ele>
        <time>2011-09-13T09:12:11Z</time>
      </trkpt>
      <trkpt lat="42.71776" lon="9.25001">
        <ele>34.744873</ele>
        <time>2011-09-13T09:12:21Z</time>
      </trkpt>
      <trkpt lat="42.7178" lon="9.25002">
        <ele>32.341553</ele>
        <time>2011-09-13T09:12:36Z</time>
      </trkpt>
      <trkpt lat="42.71782" lon="9.24985">
        <ele>28.976929</ele>
        <time>2011-09-13T09:12:52Z</time>
      </trkpt>
      <trkpt lat="42.71782" lon="9.24977">
        <ele>27.054321</ele>
        <time>2011-09-13T09:13:04Z</time>
      </trkpt>
      <trkpt lat="42.71784" lon="9.24976">
        <ele>26.092896</ele>
        <time>2011-09-13T09:13:06Z</time>
      </trkpt>
      <trkpt lat="42.71793" lon="9.24979">
        <ele>24.651001</ele>
        <time>2011-09-13T09:13:20Z</time>
      </trkpt>
      <trkpt lat="42.71792" lon="9.24974">
        <ele>22.247559</ele>
        <time>2011-09-13T09:13:25Z</time>
      </trkpt>
      <trkpt lat="42.71792" lon="9.24966">
        <ele>20.805664</ele>
        <time>2011-09-13T09:13:31Z</time>
      </trkpt>
      <trkpt lat="42.71796" lon="9.24957">
        <ele>19.36377</ele>
        <time>2011-09-13T09:13:44Z</time>
      </trkpt>
      <trkpt lat="42.71798" lon="9.24945">
        <ele>18.402344</ele>
        <time>2011-09-13T09:13:55Z</time>
      </trkpt>
      <trkpt lat="42.718" lon="9.24939">
        <ele>16.479736</ele>
        <time>2011-09-13T09:14:05Z</time>
      </trkpt>
      <trkpt lat="42.71807" lon="9.24938">
        <ele>13.595825</ele>
        <time>2011-09-13T09:14:18Z</time>
      </trkpt>
      <trkpt lat="42.71808" lon="9.24939">
        <ele>12.634399</ele>
        <time>2011-09-13T09:14:20Z</time>
      </trkpt>
      <trkpt lat="42.71813" lon="9.24938">
        <ele>11.673218</ele>
        <time>2011-09-13T09:14:28Z</time>
      </trkpt>
      <trkpt lat="42.71816" lon="9.24934">
        <ele>11.673218</ele>
        <time>2011-09-13T09:14:41Z</time>
      </trkpt>
      <trkpt lat="42.71819" lon="9.24931">
        <ele>10.711792</ele>
        <time>2011-09-13T09:14:47Z</time>
      </trkpt>
      <trkpt lat="42.71821" lon="9.24922">
        <ele>11.192505</ele>
        <time>2011-09-13T09:14:53Z</time>
      </trkpt>
      <trkpt lat="42.71831" lon="9.24897">
        <ele>12.634399</ele>
        <time>2011-09-13T09:15:09Z</time>
      </trkpt>
      <trkpt lat="42.71831" lon="9.24894">
        <ele>12.153809</ele>
        <time>2011-09-13T09:15:11Z</time>
      </trkpt>
      <trkpt lat="42.71835" lon="9.2489">
        <ele>11.673218</ele>
        <time>2011-09-13T09:15:15Z</time>
      </trkpt>
      <trkpt lat="42.71857" lon="9.24876">
        <ele>12.634399</ele>
        <time>2011-09-13T09:15:32Z</time>
      </trkpt>
      <trkpt lat="42.71859" lon="9.24874">
        <ele>12.634399</ele>
        <time>2011-09-13T09:15:34Z</time>
      </trkpt>
      <trkpt lat="42.71866" lon="9.24871">
        <ele>13.115112</ele>
        <time>2011-09-13T09:15:40Z</time>
      </trkpt>
      <trkpt lat="42.71877" lon="9.24861">
        <ele>15.518433</ele>
        <time>2011-09-13T09:15:53Z</time>
      </trkpt>
      <trkpt lat="42.71885" lon="9.24858">
        <ele>15.999023</ele>
        <time>2011-09-13T09:16:00Z</time>
      </trkpt>
      <trkpt lat="42.71899" lon="9.24847">
        <ele>18.883057</ele>
        <time>2011-09-13T09:16:14Z</time>
      </trkpt>
      <trkpt lat="42.71905" lon="9.24842">
        <ele>18.883057</ele>
        <time>2011-09-13T09:16:20Z</time>
      </trkpt>
      <trkpt lat="42.71927" lon="9.24842">
        <ele>17.921753</ele>
        <time>2011-09-13T09:16:37Z</time>
      </trkpt>
      <trkpt lat="42.71949" lon="9.24832">
        <ele>17.921753</ele>
        <time>2011-09-13T09:16:54Z</time>
      </trkpt>
      <trkpt lat="42.71956" lon="9.24824">
        <ele>17.921753</ele>
        <time>2011-09-13T09:17:01Z</time>
      </trkpt>
      <trkpt lat="42.71967" lon="9.24813">
        <ele>16.960449</ele>
        <time>2011-09-13T09:17:12Z</time>
      </trkpt>
      <trkpt lat="42.71984" lon="9.24785">
        <ele>16.479736</ele>
        <time>2011-09-13T09:17:31Z</time>
      </trkpt>
      <trkpt lat="42.71995" lon="9.24757">
        <ele>15.518433</ele>
        <time>2011-09-13T09:17:48Z</time>
      </trkpt>
      <trkpt lat="42.71999" lon="9.24744">
        <ele>15.999023</ele>
        <time>2011-09-13T09:17:56Z</time>
      </trkpt>
      <trkpt lat="42.72002" lon="9.24737">
        <ele>15.03772</ele>
        <time>2011-09-13T09:18:00Z</time>
      </trkpt>
      <trkpt lat="42.72012" lon="9.2472">
        <ele>11.673218</ele>
        <time>2011-09-13T09:18:14Z</time>
      </trkpt>
      <trkpt lat="42.72018" lon="9.24688">
        <ele>11.673218</ele>
        <time>2011-09-13T09:18:30Z</time>
      </trkpt>
      <trkpt lat="42.72021" lon="9.2466">
        <ele>10.231201</ele>
        <time>2011-09-13T09:18:46Z</time>
      </trkpt>
      <trkpt lat="42.72019" lon="9.24653">
        <ele>11.192505</ele>
        <time>2011-09-13T09:18:50Z</time>
      </trkpt>
      <trkpt lat="42.72018" lon="9.24641">
        <ele>9.75061</ele>
        <time>2011-09-13T09:18:58Z</time>
      </trkpt>
      <trkpt lat="42.72017" lon="9.24634">
        <ele>8.789185</ele>
        <time>2011-09-13T09:19:06Z</time>
      </trkpt>
      <trkpt lat="42.72015" lon="9.24631">
        <ele>9.75061</ele>
        <time>2011-09-13T09:19:08Z</time>
      </trkpt>
      <trkpt lat="42.72001" lon="9.2462">
        <ele>11.192505</ele>
        <time>2011-09-13T09:19:24Z</time>
      </trkpt>
      <trkpt lat="42.71981" lon="9.24619">
        <ele>11.192505</ele>
        <time>2011-09-13T09:19:41Z</time>
      </trkpt>
      <trkpt lat="42.71964" lon="9.24618">
        <ele>11.673218</ele>
        <time>2011-09-13T09:19:57Z</time>
      </trkpt>
      <trkpt lat="42.7195" lon="9.2462">
        <ele>11.192505</ele>
        <time>2011-09-13T09:20:08Z</time>
      </trkpt>
      <trkpt lat="42.71943" lon="9.24607">
        <ele>11.192505</ele>
        <time>2011-09-13T09:20:17Z</time>
      </trkpt>
      <trkpt lat="42.71932" lon="9.24605">
        <ele>13.115112</ele>
        <time>2011-09-13T09:20:27Z</time>
      </trkpt>
      <trkpt lat="42.71927" lon="9.24601">
        <ele>12.634399</ele>
        <time>2011-09-13T09:20:34Z</time>
      </trkpt>
      <trkpt lat="42.71924" lon="9.24599">
        <ele>11.192505</ele>
        <time>2011-09-13T09:20:37Z</time>
      </trkpt>
      <trkpt lat="42.71911" lon="9.24593">
        <ele>10.231201</ele>
        <time>2011-09-13T09:20:49Z</time>
      </trkpt>
      <trkpt lat="42.71909" lon="9.24584">
        <ele>10.231201</ele>
        <time>2011-09-13T09:20:55Z</time>
      </trkpt>
      <trkpt lat="42.71903" lon="9.24581">
        <ele>10.711792</ele>
        <time>2011-09-13T09:21:00Z</time>
      </trkpt>
      <trkpt lat="42.71898" lon="9.24573">
        <ele>11.192505</ele>
        <time>2011-09-13T09:21:07Z</time>
      </trkpt>
      <trkpt lat="42.71876" lon="9.24558">
        <ele>10.711792</ele>
        <time>2011-09-13T09:21:25Z</time>
      </trkpt>
      <trkpt lat="42.71875" lon="9.24558">
        <ele>10.711792</ele>
        <time>2011-09-13T09:21:26Z</time>
      </trkpt>
      <trkpt lat="42.71863" lon="9.24546">
        <ele>10.711792</ele>
        <time>2011-09-13T09:21:38Z</time>
      </trkpt>
      <trkpt lat="42.71858" lon="9.24542">
        <ele>11.192505</ele>
        <time>2011-09-13T09:21:43Z</time>
      </trkpt>
      <trkpt lat="42.71849" lon="9.24537">
        <ele>11.192505</ele>
        <time>2011-09-13T09:21:56Z</time>
      </trkpt>
      <trkpt lat="42.71841" lon="9.24531">
        <ele>11.673218</ele>
        <time>2011-09-13T09:22:09Z</time>
      </trkpt>
      <trkpt lat="42.71837" lon="9.24518">
        <ele>10.711792</ele>
        <time>2011-09-13T09:22:21Z</time>
      </trkpt>
      <trkpt lat="42.71835" lon="9.24511">
        <ele>11.673218</ele>
        <time>2011-09-13T09:22:25Z</time>
      </trkpt>
      <trkpt lat="42.71827" lon="9.24486">
        <ele>12.153809</ele>
        <time>2011-09-13T09:22:42Z</time>
      </trkpt>
      <trkpt lat="42.71825" lon="9.24483">
        <ele>12.634399</ele>
        <time>2011-09-13T09:22:45Z</time>
      </trkpt>
      <trkpt lat="42.71819" lon="9.24466">
        <ele>12.153809</ele>
        <time>2011-09-13T09:22:59Z</time>
      </trkpt>
      <trkpt lat="42.71814" lon="9.24461">
        <ele>10.231201</ele>
        <time>2011-09-13T09:23:08Z</time>
      </trkpt>
      <trkpt lat="42.71816" lon="9.24457">
        <ele>7.347168</ele>
        <time>2011-09-13T09:23:19Z</time>
      </trkpt>
      <trkpt lat="42.71826" lon="9.24435">
        <ele>5.424561</ele>
        <time>2011-09-13T09:23:36Z</time>
      </trkpt>
      <trkpt lat="42.71832" lon="9.24415">
        <ele>6.866455</ele>
        <time>2011-09-13T09:23:54Z</time>
      </trkpt>
      <trkpt lat="42.71835" lon="9.24403">
        <ele>7.347168</ele>
        <time>2011-09-13T09:24:04Z</time>
      </trkpt>
      <trkpt lat="42.71844" lon="9.24388">
        <ele>8.308594</ele>
        <time>2011-09-13T09:24:22Z</time>
      </trkpt>
      <trkpt lat="42.71852" lon="9.24382">
        <ele>9.75061</ele>
        <time>2011-09-13T09:24:35Z</time>
      </trkpt>
      <trkpt lat="42.71861" lon="9.24369">
        <ele>12.153809</ele>
        <time>2011-09-13T09:24:49Z</time>
      </trkpt>
      <trkpt lat="42.71874" lon="9.24348">
        <ele>12.634399</ele>
        <time>2011-09-13T09:25:08Z</time>
      </trkpt>
      <trkpt lat="42.71878" lon="9.24341">
        <ele>10.711792</ele>
        <time>2011-09-13T09:25:17Z</time>
      </trkpt>
      <trkpt lat="42.71885" lon="9.24328">
        <ele>10.231201</ele>
        <time>2011-09-13T09:25:28Z</time>
      </trkpt>
      <trkpt lat="42.71889" lon="9.24325">
        <ele>10.231201</ele>
        <time>2011-09-13T09:25:32Z</time>
      </trkpt>
      <trkpt lat="42.71893" lon="9.24317">
        <ele>10.231201</ele>
        <time>2011-09-13T09:25:40Z</time>
      </trkpt>
      <trkpt lat="42.71894" lon="9.24302">
        <ele>10.231201</ele>
        <time>2011-09-13T09:25:48Z</time>
      </trkpt>
      <trkpt lat="42.71888" lon="9.24277">
        <ele>10.711792</ele>
        <time>2011-09-13T09:26:05Z</time>
      </trkpt>
      <trkpt lat="42.71889" lon="9.24275">
        <ele>10.231201</ele>
        <time>2011-09-13T09:26:07Z</time>
      </trkpt>
      <trkpt lat="42.71887" lon="9.2425">
        <ele>12.153809</ele>
        <time>2011-09-13T09:26:23Z</time>
      </trkpt>
      <trkpt lat="42.71886" lon="9.24248">
        <ele>11.673218</ele>
        <time>2011-09-13T09:26:24Z</time>
      </trkpt>
      <trkpt lat="42.71885" lon="9.24238">
        <ele>11.673218</ele>
        <time>2011-09-13T09:26:40Z</time>
      </trkpt>
      <trkpt lat="42.7188" lon="9.24226">
        <ele>13.595825</ele>
        <time>2011-09-13T09:27:01Z</time>
      </trkpt>
      <trkpt lat="42.71877" lon="9.24217">
        <ele>13.595825</ele>
        <time>2011-09-13T09:27:07Z</time>
      </trkpt>
      <trkpt lat="42.71879" lon="9.2421">
        <ele>13.115112</ele>
        <time>2011-09-13T09:27:12Z</time>
      </trkpt>
      <trkpt lat="42.7188" lon="9.24208">
        <ele>12.634399</ele>
        <time>2011-09-13T09:27:14Z</time>
      </trkpt>
      <trkpt lat="42.71884" lon="9.24181">
        <ele>10.231201</ele>
        <time>2011-09-13T09:27:30Z</time>
      </trkpt>
      <trkpt lat="42.71883" lon="9.24154">
        <ele>9.75061</ele>
        <time>2011-09-13T09:27:45Z</time>
      </trkpt>
      <trkpt lat="42.71886" lon="9.2414">
        <ele>10.711792</ele>
        <time>2011-09-13T09:27:53Z</time>
      </trkpt>
      <trkpt lat="42.71884" lon="9.24134">
        <ele>11.192505</ele>
        <time>2011-09-13T09:27:57Z</time>
      </trkpt>
      <trkpt lat="42.71886" lon="9.24127">
        <ele>11.192505</ele>
        <time>2011-09-13T09:28:02Z</time>
      </trkpt>
      <trkpt lat="42.71887" lon="9.24109">
        <ele>11.192505</ele>
        <time>2011-09-13T09:28:13Z</time>
      </trkpt>
      <trkpt lat="42.71885" lon="9.24092">
        <ele>13.115112</ele>
        <time>2011-09-13T09:28:25Z</time>
      </trkpt>
      <trkpt lat="42.71887" lon="9.24073">
        <ele>15.518433</ele>
        <time>2011-09-13T09:28:39Z</time>
      </trkpt>
      <trkpt lat="42.71888" lon="9.24071">
        <ele>14.557007</ele>
        <time>2011-09-13T09:28:40Z</time>
      </trkpt>
      <trkpt lat="42.7189" lon="9.24059">
        <ele>12.153809</ele>
        <time>2011-09-13T09:28:52Z</time>
      </trkpt>
      <trkpt lat="42.71889" lon="9.24054">
        <ele>12.634399</ele>
        <time>2011-09-13T09:28:55Z</time>
      </trkpt>
      <trkpt lat="42.71891" lon="9.24047">
        <ele>13.115112</ele>
        <time>2011-09-13T09:29:00Z</time>
      </trkpt>
      <trkpt lat="42.71892" lon="9.24043">
        <ele>13.115112</ele>
        <time>2011-09-13T09:29:05Z</time>
      </trkpt>
      <trkpt lat="42.71899" lon="9.24024">
        <ele>12.634399</ele>
        <time>2011-09-13T09:29:20Z</time>
      </trkpt>
      <trkpt lat="42.71898" lon="9.24012">
        <ele>11.192505</ele>
        <time>2011-09-13T09:29:29Z</time>
      </trkpt>
      <trkpt lat="42.71903" lon="9.23998">
        <ele>11.192505</ele>
        <time>2011-09-13T09:29:43Z</time>
      </trkpt>
      <trkpt lat="42.71904" lon="9.23995">
        <ele>11.192505</ele>
        <time>2011-09-13T09:29:46Z</time>
      </trkpt>
      <trkpt lat="42.71911" lon="9.23974">
        <ele>11.192505</ele>
        <time>2011-09-13T09:30:01Z</time>
      </trkpt>
      <trkpt lat="42.71912" lon="9.23964">
        <ele>10.711792</ele>
        <time>2011-09-13T09:30:07Z</time>
      </trkpt>
      <trkpt lat="42.71913" lon="9.23961">
        <ele>10.711792</ele>
        <time>2011-09-13T09:30:09Z</time>
      </trkpt>
      <trkpt lat="42.71914" lon="9.23955">
        <ele>11.673218</ele>
        <time>2011-09-13T09:30:14Z</time>
      </trkpt>
      <trkpt lat="42.71918" lon="9.23953">
        <ele>11.673218</ele>
        <time>2011-09-13T09:30:18Z</time>
      </trkpt>
      <trkpt lat="42.71923" lon="9.23948">
        <ele>11.673218</ele>
        <time>2011-09-13T09:30:22Z</time>
      </trkpt>
      <trkpt lat="42.71924" lon="9.23943">
        <ele>12.634399</ele>
        <time>2011-09-13T09:30:25Z</time>
      </trkpt>
      <trkpt lat="42.71926" lon="9.2393">
        <ele>15.518433</ele>
        <time>2011-09-13T09:30:35Z</time>
      </trkpt>
      <trkpt lat="42.71932" lon="9.23917">
        <ele>15.03772</ele>
        <time>2011-09-13T09:30:49Z</time>
      </trkpt>
      <trkpt lat="42.71936" lon="9.23903">
        <ele>16.479736</ele>
        <time>2011-09-13T09:31:00Z</time>
      </trkpt>
      <trkpt lat="42.71937" lon="9.23898">
        <ele>15.999023</ele>
        <time>2011-09-13T09:31:04Z</time>
      </trkpt>
      <trkpt lat="42.71942" lon="9.23883">
        <ele>16.479736</ele>
        <time>2011-09-13T09:31:19Z</time>
      </trkpt>
      <trkpt lat="42.71946" lon="9.23872">
        <ele>18.402344</ele>
        <time>2011-09-13T09:31:32Z</time>
      </trkpt>
      <trkpt lat="42.71954" lon="9.23866">
        <ele>16.960449</ele>
        <time>2011-09-13T09:31:47Z</time>
      </trkpt>
      <trkpt lat="42.71965" lon="9.23868">
        <ele>14.557007</ele>
        <time>2011-09-13T09:32:04Z</time>
      </trkpt>
      <trkpt lat="42.71969" lon="9.23864">
        <ele>15.03772</ele>
        <time>2011-09-13T09:32:16Z</time>
      </trkpt>
      <trkpt lat="42.71975" lon="9.23857">
        <ele>13.595825</ele>
        <time>2011-09-13T09:32:24Z</time>
      </trkpt>
      <trkpt lat="42.71978" lon="9.23841">
        <ele>15.03772</ele>
        <time>2011-09-13T09:32:38Z</time>
      </trkpt>
      <trkpt lat="42.71977" lon="9.23839">
        <ele>15.999023</ele>
        <time>2011-09-13T09:32:40Z</time>
      </trkpt>
      <trkpt lat="42.71978" lon="9.2383">
        <ele>16.479736</ele>
        <time>2011-09-13T09:32:49Z</time>
      </trkpt>
      <trkpt lat="42.71981" lon="9.23821">
        <ele>14.557007</ele>
        <time>2011-09-13T09:33:02Z</time>
      </trkpt>
      <trkpt lat="42.71979" lon="9.23809">
        <ele>15.999023</ele>
        <time>2011-09-13T09:33:33Z</time>
      </trkpt>
      <trkpt lat="42.71977" lon="9.23801">
        <ele>15.03772</ele>
        <time>2011-09-13T09:33:50Z</time>
      </trkpt>
      <trkpt lat="42.71976" lon="9.23789">
        <ele>13.115112</ele>
        <time>2011-09-13T09:34:01Z</time>
      </trkpt>
      <trkpt lat="42.71977" lon="9.23777">
        <ele>10.711792</ele>
        <time>2011-09-13T09:34:15Z</time>
      </trkpt>
      <trkpt lat="42.71979" lon="9.23776">
        <ele>10.711792</ele>
        <time>2011-09-13T09:34:18Z</time>
      </trkpt>
      <trkpt lat="42.7198" lon="9.23761">
        <ele>11.192505</ele>
        <time>2011-09-13T09:34:32Z</time>
      </trkpt>
      <trkpt lat="42.71979" lon="9.23759">
        <ele>9.75061</ele>
        <time>2011-09-13T09:34:33Z</time>
      </trkpt>
      <trkpt lat="42.71975" lon="9.23748">
        <ele>9.75061</ele>
        <time>2011-09-13T09:34:48Z</time>
      </trkpt>
      <trkpt lat="42.71971" lon="9.23743">
        <ele>9.269897</ele>
        <time>2011-09-13T09:35:10Z</time>
      </trkpt>
      <trkpt lat="42.71969" lon="9.23742">
        <ele>9.75061</ele>
        <time>2011-09-13T09:35:12Z</time>
      </trkpt>
      <trkpt lat="42.7196" lon="9.23742">
        <ele>9.269897</ele>
        <time>2011-09-13T09:35:25Z</time>
      </trkpt>
      <trkpt lat="42.71956" lon="9.23731">
        <ele>9.75061</ele>
        <time>2011-09-13T09:35:37Z</time>
      </trkpt>
      <trkpt lat="42.71952" lon="9.2372">
        <ele>7.827881</ele>
        <time>2011-09-13T09:35:53Z</time>
      </trkpt>
      <trkpt lat="42.71952" lon="9.23718">
        <ele>7.347168</ele>
        <time>2011-09-13T09:36:11Z</time>
      </trkpt>
      <trkpt lat="42.71951" lon="9.23714">
        <ele>5.424561</ele>
        <time>2011-09-13T09:36:23Z</time>
      </trkpt>
      <trkpt lat="42.71949" lon="9.2371">
        <ele>3.982666</ele>
        <time>2011-09-13T09:36:34Z</time>
      </trkpt>
      <trkpt lat="42.71949" lon="9.2371">
        <ele>3.501953</ele>
        <time>2011-09-13T09:36:38Z</time>
      </trkpt>
      <trkpt lat="42.71948" lon="9.2371">
        <ele>3.501953</ele>
        <time>2011-09-13T09:36:40Z</time>
      </trkpt>
      <trkpt lat="42.71927" lon="9.23714">
        <ele>3.982666</ele>
        <time>2011-09-13T09:36:54Z</time>
      </trkpt>
      <trkpt lat="42.71941" lon="9.23712">
        <ele>3.501953</ele>
        <time>2011-09-13T09:37:10Z</time>
      </trkpt>
      <trkpt lat="42.71942" lon="9.23711">
        <ele>3.982666</ele>
        <time>2011-09-13T09:37:11Z</time>
      </trkpt>
      <trkpt lat="42.71969" lon="9.23706">
        <ele>4.463257</ele>
        <time>2011-09-13T09:37:16Z</time>
      </trkpt>
      <trkpt lat="42.71975" lon="9.23705">
        <ele>3.982666</ele>
        <time>2011-09-13T09:37:30Z</time>
      </trkpt>
      <trkpt lat="42.71949" lon="9.2371">
        <ele>8.789185</ele>
        <time>2011-09-13T09:37:41Z</time>
      </trkpt>
      <trkpt lat="42.71949" lon="9.2371">
        <ele>4.943848</ele>
        <time>2011-09-13T09:37:42Z</time>
      </trkpt>
      <trkpt lat="42.71948" lon="9.2371">
        <ele>2.540649</ele>
        <time>2011-09-13T09:37:49Z</time>
      </trkpt>
      <trkpt lat="42.71948" lon="9.2371">
        <ele>3.501953</ele>
        <time>2011-09-13T09:37:51Z</time>
      </trkpt>
      <trkpt lat="42.71947" lon="9.2371">
        <ele>5.424561</ele>
        <time>2011-09-13T09:39:35Z</time>
      </trkpt>
      <trkpt lat="42.71949" lon="9.2371">
        <ele>4.943848</ele>
        <time>2011-09-13T09:40:00Z</time>
      </trkpt>
      <trkpt lat="42.71949" lon="9.23709">
        <ele>3.982666</ele>
        <time>2011-09-13T09:40:28Z</time>
      </trkpt>
      <trkpt lat="42.71949" lon="9.23711">
        <ele>3.501953</ele>
        <time>2011-09-13T09:41:07Z</time>
      </trkpt>
      <trkpt lat="42.71957" lon="9.23713">
        <ele>3.02124</ele>
        <time>2011-09-13T09:41:28Z</time>
      </trkpt>
      <trkpt lat="42.71947" lon="9.23709">
        <ele>3.02124</ele>
        <time>2011-09-13T09:41:46Z</time>
      </trkpt>
      <trkpt lat="42.71945" lon="9.23713">
        <ele>3.501953</ele>
        <time>2011-09-13T09:41:59Z</time>
      </trkpt>
      <trkpt lat="42.71968" lon="9.23704">
        <ele>3.501953</ele>
        <time>2011-09-13T09:42:17Z</time>
      </trkpt>
      <trkpt lat="42.71951" lon="9.23709">
        <ele>2.540649</ele>
        <time>2011-09-13T09:42:44Z</time>
      </trkpt>
      <trkpt lat="42.71947" lon="9.23711">
        <ele>3.02124</ele>
        <time>2011-09-13T09:43:06Z</time>
      </trkpt>
      <trkpt lat="42.71946" lon="9.23711">
        <ele>3.02124</ele>
        <time>2011-09-13T09:43:21Z</time>
      </trkpt>
      <trkpt lat="42.71944" lon="9.2371">
        <ele>3.501953</ele>
        <time>2011-09-13T09:43:33Z</time>
      </trkpt>
      <trkpt lat="42.71947" lon="9.2371">
        <ele>2.060059</ele>
        <time>2011-09-13T09:43:36Z</time>
      </trkpt>
      <trkpt lat="42.71949" lon="9.2371">
        <ele>2.540649</ele>
        <time>2011-09-13T09:43:43Z</time>
      </trkpt>
      <trkpt lat="42.71949" lon="9.23711">
        <ele>2.540649</ele>
        <time>2011-09-13T09:44:03Z</time>
      </trkpt>
      <trkpt lat="42.71945" lon="9.23714">
        <ele>3.02124</ele>
        <time>2011-09-13T09:44:14Z</time>
      </trkpt>
      <trkpt lat="42.71946" lon="9.23714">
        <ele>3.02124</ele>
        <time>2011-09-13T09:44:38Z</time>
      </trkpt>
      <trkpt lat="42.71956" lon="9.23711">
        <ele>2.540649</ele>
        <time>2011-09-13T09:44:49Z</time>
      </trkpt>
      <trkpt lat="42.71952" lon="9.23712">
        <ele>3.02124</ele>
        <time>2011-09-13T09:44:50Z</time>
      </trkpt>
      <trkpt lat="42.71939" lon="9.2371">
        <ele>2.540649</ele>
        <time>2011-09-13T09:45:02Z</time>
      </trkpt>
      <trkpt lat="42.71945" lon="9.23709">
        <ele>3.02124</ele>
        <time>2011-09-13T09:45:22Z</time>
      </trkpt>
    </trkseg>
  </trk>
  <trk>
    <name><![CDATA[ACTIVE LOG 020]]></name>
    <trkseg>
      <trkpt lat="42.71954" lon="9.23712">
        <ele>9.269897</ele>
        <time>2011-09-13T13:22:08Z</time>
      </trkpt>
      <trkpt lat="42.71953" lon="9.23713">
        <ele>9.269897</ele>
        <time>2011-09-13T13:22:45Z</time>
      </trkpt>
      <trkpt lat="42.71948" lon="9.23714">
        <ele>10.711792</ele>
        <time>2011-09-13T13:23:01Z</time>
      </trkpt>
      <trkpt lat="42.71952" lon="9.23713">
        <ele>9.269897</ele>
        <time>2011-09-13T13:23:04Z</time>
      </trkpt>
      <trkpt lat="42.71943" lon="9.23713">
        <ele>9.269897</ele>
        <time>2011-09-13T13:23:26Z</time>
      </trkpt>
      <trkpt lat="42.71918" lon="9.23713">
        <ele>8.789185</ele>
        <time>2011-09-13T13:24:35Z</time>
      </trkpt>
      <trkpt lat="42.71934" lon="9.23713">
        <ele>8.308594</ele>
        <time>2011-09-13T13:24:57Z</time>
      </trkpt>
      <trkpt lat="42.71948" lon="9.23712">
        <ele>7.827881</ele>
        <time>2011-09-13T13:25:37Z</time>
      </trkpt>
      <trkpt lat="42.71953" lon="9.23712">
        <ele>7.827881</ele>
        <time>2011-09-13T13:26:30Z</time>
      </trkpt>
      <trkpt lat="42.71949" lon="9.23712">
        <ele>8.308594</ele>
        <time>2011-09-13T13:27:13Z</time>
      </trkpt>
      <trkpt lat="42.71944" lon="9.23713">
        <ele>7.347168</ele>
        <time>2011-09-13T13:28:22Z</time>
      </trkpt>
      <trkpt lat="42.71947" lon="9.23714">
        <ele>6.866455</ele>
        <time>2011-09-13T13:29:05Z</time>
      </trkpt>
      <trkpt lat="42.71943" lon="9.23715">
        <ele>6.866455</ele>
        <time>2011-09-13T13:30:02Z</time>
      </trkpt>
      <trkpt lat="42.71941" lon="9.23714">
        <ele>7.827881</ele>
        <time>2011-09-13T13:30:32Z</time>
      </trkpt>
      <trkpt lat="42.71946" lon="9.2371">
        <ele>9.75061</ele>
        <time>2011-09-13T13:30:48Z</time>
      </trkpt>
      <trkpt lat="42.71942" lon="9.23708">
        <ele>11.192505</ele>
        <time>2011-09-13T13:31:07Z</time>
      </trkpt>
      <trkpt lat="42.71941" lon="9.23712">
        <ele>11.192505</ele>
        <time>2011-09-13T13:31:20Z</time>
      </trkpt>
      <trkpt lat="42.71935" lon="9.2371">
        <ele>11.192505</ele>
        <time>2011-09-13T13:31:31Z</time>
      </trkpt>
      <trkpt lat="42.71933" lon="9.23696">
        <ele>10.711792</ele>
        <time>2011-09-13T13:31:47Z</time>
      </trkpt>
      <trkpt lat="42.71933" lon="9.23688">
        <ele>10.711792</ele>
        <time>2011-09-13T13:31:52Z</time>
      </trkpt>
      <trkpt lat="42.71932" lon="9.23684">
        <ele>10.711792</ele>
        <time>2011-09-13T13:31:55Z</time>
      </trkpt>
      <trkpt lat="42.71941" lon="9.2367">
        <ele>10.711792</ele>
        <time>2011-09-13T13:32:09Z</time>
      </trkpt>
      <trkpt lat="42.71937" lon="9.23658">
        <ele>10.711792</ele>
        <time>2011-09-13T13:32:18Z</time>
      </trkpt>
      <trkpt lat="42.71937" lon="9.23652">
        <ele>10.711792</ele>
        <time>2011-09-13T13:32:22Z</time>
      </trkpt>
      <trkpt lat="42.71941" lon="9.23638">
        <ele>10.231201</ele>
        <time>2011-09-13T13:32:32Z</time>
      </trkpt>
      <trkpt lat="42.71937" lon="9.23628">
        <ele>10.711792</ele>
        <time>2011-09-13T13:32:44Z</time>
      </trkpt>
      <trkpt lat="42.71932" lon="9.23618">
        <ele>10.231201</ele>
        <time>2011-09-13T13:32:53Z</time>
      </trkpt>
      <trkpt lat="42.71925" lon="9.23601">
        <ele>7.827881</ele>
        <time>2011-09-13T13:33:11Z</time>
      </trkpt>
      <trkpt lat="42.71926" lon="9.23596">
        <ele>8.308594</ele>
        <time>2011-09-13T13:33:15Z</time>
      </trkpt>
      <trkpt lat="42.71928" lon="9.23592">
        <ele>7.347168</ele>
        <time>2011-09-13T13:33:18Z</time>
      </trkpt>
      <trkpt lat="42.71938" lon="9.23586">
        <ele>8.308594</ele>
        <time>2011-09-13T13:33:29Z</time>
      </trkpt>
      <trkpt lat="42.71947" lon="9.23555">
        <ele>7.827881</ele>
        <time>2011-09-13T13:33:50Z</time>
      </trkpt>
      <trkpt lat="42.7195" lon="9.23531">
        <ele>7.827881</ele>
        <time>2011-09-13T13:34:05Z</time>
      </trkpt>
      <trkpt lat="42.71958" lon="9.235">
        <ele>8.308594</ele>
        <time>2011-09-13T13:34:25Z</time>
      </trkpt>
      <trkpt lat="42.7197" lon="9.23462">
        <ele>7.827881</ele>
        <time>2011-09-13T13:34:49Z</time>
      </trkpt>
      <trkpt lat="42.71975" lon="9.23436">
        <ele>8.308594</ele>
        <time>2011-09-13T13:35:06Z</time>
      </trkpt>
      <trkpt lat="42.71985" lon="9.23404">
        <ele>8.308594</ele>
        <time>2011-09-13T13:35:26Z</time>
      </trkpt>
      <trkpt lat="42.71997" lon="9.23369">
        <ele>7.827881</ele>
        <time>2011-09-13T13:35:48Z</time>
      </trkpt>
      <trkpt lat="42.72009" lon="9.23342">
        <ele>7.827881</ele>
        <time>2011-09-13T13:36:06Z</time>
      </trkpt>
      <trkpt lat="42.72025" lon="9.23307">
        <ele>7.347168</ele>
        <time>2011-09-13T13:36:29Z</time>
      </trkpt>
      <trkpt lat="42.72039" lon="9.2328">
        <ele>6.866455</ele>
        <time>2011-09-13T13:36:48Z</time>
      </trkpt>
      <trkpt lat="42.72045" lon="9.23265">
        <ele>7.347168</ele>
        <time>2011-09-13T13:37:00Z</time>
      </trkpt>
    </trkseg>
  </trk>
</gpx>